Wetterdaten: Sonntag, 16.08.2015
Datum Zeit Temp. Aussen +5cm Feuchte Auss BlattFeu 1 Luftdruck Regen Sonnenschein Regendauer Solar Windben
16.08.2015 00:00 16,3 C 15,0 C 97 % 15 lf 1011,7 hPa 0,0 l/m 0 min 2 min 0 W/m 18,8 km/h (3 Bft)
16.08.2015 00:02 16,3 C 15,0 C 97 % 15 lf 1011,7 hPa 0,0 l/m 0 min 2 min 0 W/m 23,0 km/h (4 Bft)
16.08.2015 00:05 16,2 C 15,0 C 97 % 15 lf 1011,8 hPa 0,0 l/m 0 min 2 min 0 W/m 23,0 km/h (4 Bft)
16.08.2015 00:06 16,2 C 15,0 C 97 % 15 lf 1011,7 hPa 0,0 l/m 0 min 1 min 0 W/m 23,0 km/h (4 Bft)
16.08.2015 00:08 16,2 C 15,0 C 97 % 15 lf 1011,7 hPa 0,0 l/m 0 min 2 min 0 W/m 20,9 km/h (4 Bft)
16.08.2015 00:10 16,2 C 15,0 C 97 % 15 lf 1011,8 hPa 0,0 l/m 0 min 2 min 0 W/m 23,0 km/h (4 Bft)
16.08.2015 00:12 16,2 C 15,0 C 97 % 15 lf 1011,8 hPa 0,2 l/m 0 min 2 min 0 W/m 25,1 km/h (4 Bft)
16.08.2015 00:14 16,2 C 15,0 C 97 % 15 lf 1011,8 hPa 0,0 l/m 0 min 2 min 0 W/m 25,1 km/h (4 Bft)
16.08.2015 00:16 16,1 C 15,0 C 97 % 15 lf 1011,8 hPa 0,0 l/m 0 min 2 min 0 W/m 20,9 km/h (4 Bft)
16.08.2015 00:18 16,1 C 15,0 C 97 % 15 lf 1011,8 hPa 0,0 l/m 0 min 2 min 0 W/m 16,7 km/h (3 Bft)
16.08.2015 00:20 16,1 C 15,0 C 97 % 15 lf 1011,9 hPa 0,0 l/m 0 min 2 min 0 W/m 20,9 km/h (4 Bft)
16.08.2015 00:22 16,1 C 15,0 C 97 % 15 lf 1011,9 hPa 0,0 l/m 0 min 2 min 0 W/m 16,7 km/h (3 Bft)
16.08.2015 00:24 16,1 C 15,0 C 97 % 15 lf 1011,9 hPa 0,0 l/m 0 min 2 min 0 W/m 18,8 km/h (3 Bft)
16.08.2015 00:26 16,1 C 15,0 C 97 % 15 lf 1011,9 hPa 0,0 l/m 0 min 2 min 0 W/m 31,4 km/h (5 Bft)
16.08.2015 00:28 16,1 C 15,0 C 97 % 15 lf 1011,9 hPa 0,0 l/m 0 min 2 min 0 W/m 23,0 km/h (4 Bft)
16.08.2015 00:30 16,1 C 14,4 C 97 % 15 lf 1012,0 hPa 0,2 l/m 0 min 2 min 0 W/m 31,4 km/h (5 Bft)
16.08.2015 00:32 16,0 C 14,4 C 97 % 15 lf 1012,0 hPa 0,0 l/m 0 min 2 min 0 W/m 27,2 km/h (4 Bft)
16.08.2015 00:34 16,0 C 14,4 C 97 % 15 lf 1012,0 hPa 0,0 l/m 0 min 2 min 0 W/m 27,2 km/h (4 Bft)
16.08.2015 00:36 16,0 C 15,0 C 97 % 15 lf 1012,0 hPa 0,0 l/m 0 min 2 min 0 W/m 16,7 km/h (3 Bft)
16.08.2015 00:38 16,0 C 15,0 C 97 % 15 lf 1012,0 hPa 0,0 l/m 0 min 2 min 0 W/m 14,6 km/h (3 Bft)
16.08.2015 00:40 16,0 C 15,0 C 97 % 15 lf 1012,0 hPa 0,0 l/m 0 min 2 min 0 W/m 20,9 km/h (4 Bft)
16.08.2015 00:42 16,0 C 15,0 C 97 % 15 lf 1012,0 hPa 0,0 l/m 0 min 2 min 0 W/m 20,9 km/h (4 Bft)
16.08.2015 00:44 16,0 C 14,4 C 97 % 15 lf 1012,0 hPa 0,0 l/m 0 min 2 min 0 W/m 23,0 km/h (4 Bft)
16.08.2015 00:46 15,9 C 14,4 C 97 % 15 lf 1012,0 hPa 0,0 l/m 0 min 2 min 0 W/m 23,0 km/h (4 Bft)
16.08.2015 00:48 15,9 C 14,4 C 97 % 15 lf 1012,0 hPa 0,2 l/m 0 min 2 min 0 W/m 29,3 km/h (5 Bft)
16.08.2015 00:50 15,9 C 14,4 C 97 % 15 lf 1012,0 hPa 0,2 l/m 0 min 2 min 0 W/m 25,1 km/h (4 Bft)
16.08.2015 00:52 15,9 C 14,4 C 97 % 15 lf 1012,0 hPa 0,0 l/m 0 min 2 min 0 W/m 25,1 km/h (4 Bft)
16.08.2015 00:54 15,9 C 14,4 C 97 % 15 lf 1012,0 hPa 0,0 l/m 0 min 2 min 0 W/m 16,7 km/h (3 Bft)
16.08.2015 00:56 15,9 C 14,4 C 97 % 15 lf 1011,9 hPa 0,2 l/m 0 min 2 min 0 W/m 18,8 km/h (3 Bft)
16.08.2015 00:58 15,9 C 14,4 C 97 % 15 lf 1012,0 hPa 0,0 l/m 0 min 2 min 0 W/m 14,6 km/h (3 Bft)
16.08.2015 01:00 15,9 C 14,4 C 97 % 15 lf 1012,0 hPa 0,0 l/m 0 min 2 min 0 W/m 12,6 km/h (3 Bft)
16.08.2015 01:02 15,9 C 14,4 C 97 % 15 lf 1012,0 hPa 0,2 l/m 0 min 2 min 0 W/m 23,0 km/h (4 Bft)
16.08.2015 01:04 15,9 C 14,4 C 97 % 15 lf 1012,0 hPa 0,0 l/m 0 min 2 min 0 W/m 14,6 km/h (3 Bft)
16.08.2015 01:06 15,9 C 14,4 C 97 % 15 lf 1011,9 hPa 0,0 l/m 0 min 2 min 0 W/m 27,2 km/h (4 Bft)
16.08.2015 01:08 15,9 C 14,4 C 97 % 15 lf 1012,0 hPa 0,2 l/m 0 min 2 min 0 W/m 23,0 km/h (4 Bft)
16.08.2015 01:10 15,9 C 14,4 C 97 % 15 lf 1012,0 hPa 0,2 l/m 0 min 2 min 0 W/m 16,7 km/h (3 Bft)
16.08.2015 01:12 15,9 C 14,4 C 97 % 15 lf 1011,9 hPa 0,0 l/m 0 min 2 min 0 W/m 20,9 km/h (4 Bft)
16.08.2015 01:14 15,9 C 14,4 C 97 % 15 lf 1012,0 hPa 0,0 l/m 0 min 2 min 0 W/m 20,9 km/h (4 Bft)
16.08.2015 01:16 15,9 C 14,4 C 97 % 15 lf 1012,0 hPa 0,2 l/m 0 min 2 min 0 W/m 18,8 km/h (3 Bft)
16.08.2015 01:18 15,8 C 14,4 C 97 % 15 lf 1011,9 hPa 0,0 l/m 0 min 2 min 0 W/m 23,0 km/h (4 Bft)
16.08.2015 01:20 15,8 C 14,4 C 97 % 15 lf 1012,0 hPa 0,2 l/m 0 min 2 min 0 W/m 18,8 km/h (3 Bft)
16.08.2015 01:22 15,8 C 14,4 C 97 % 15 lf 1012,0 hPa 0,0 l/m 0 min 2 min 0 W/m 16,7 km/h (3 Bft)
16.08.2015 01:24 15,8 C 14,4 C 97 % 15 lf 1012,0 hPa 0,2 l/m 0 min 2 min 0 W/m 14,6 km/h (3 Bft)
16.08.2015 01:26 15,8 C 14,4 C 97 % 15 lf 1012,0 hPa 0,0 l/m 0 min 2 min 0 W/m 16,7 km/h (3 Bft)
16.08.2015 01:28 15,8 C 14,4 C 97 % 15 lf 1012,0 hPa 0,2 l/m 0 min 2 min 0 W/m 20,9 km/h (4 Bft)
16.08.2015 01:30 15,8 C 14,4 C 97 % 15 lf 1012,1 hPa 0,0 l/m 0 min 2 min 0 W/m 25,1 km/h (4 Bft)
16.08.2015 01:32 15,8 C 14,4 C 97 % 15 lf 1012,1 hPa 0,2 l/m 0 min 2 min 0 W/m 23,0 km/h (4 Bft)
16.08.2015 01:34 15,8 C 14,4 C 97 % 15 lf 1012,1 hPa 0,0 l/m 0 min 2 min 0 W/m 27,2 km/h (4 Bft)
16.08.2015 01:36 15,8 C 14,4 C 97 % 15 lf 1012,1 hPa 0,2 l/m 0 min 2 min 0 W/m 20,9 km/h (4 Bft)
16.08.2015 01:38 15,8 C 14,4 C 97 % 15 lf 1012,0 hPa 0,0 l/m 0 min 2 min 0 W/m 12,6 km/h (3 Bft)
16.08.2015 01:40 15,8 C 14,4 C 97 % 15 lf 1012,1 hPa 0,2 l/m 0 min 2 min 0 W/m 23,0 km/h (4 Bft)
16.08.2015 01:42 15,8 C 14,4 C 97 % 15 lf 1012,2 hPa 0,0 l/m 0 min 2 min 0 W/m 25,1 km/h (4 Bft)
16.08.2015 01:44 15,8 C 14,4 C 97 % 15 lf 1012,1 hPa 0,2 l/m 0 min 2 min 0 W/m 20,9 km/h (4 Bft)
16.08.2015 01:46 15,8 C 14,4 C 97 % 15 lf 1012,1 hPa 0,0 l/m 0 min 2 min 0 W/m 18,8 km/h (3 Bft)
16.08.2015 01:48 15,8 C 14,4 C 97 % 15 lf 1012,1 hPa 0,0 l/m 0 min 2 min 0 W/m 27,2 km/h (4 Bft)
16.08.2015 01:50 15,8 C 14,4 C 97 % 15 lf 1012,1 hPa 0,2 l/m 0 min 2 min 0 W/m 18,8 km/h (3 Bft)
16.08.2015 01:52 15,8 C 14,4 C 97 % 15 lf 1012,1 hPa 0,0 l/m 0 min 2 min 0 W/m 27,2 km/h (4 Bft)
16.08.2015 01:54 15,8 C 14,4 C 97 % 15 lf 1012,2 hPa 0,2 l/m 0 min 2 min 0 W/m 18,8 km/h (3 Bft)
16.08.2015 01:56 15,8 C 14,4 C 97 % 15 lf 1012,2 hPa 0,0 l/m 0 min 2 min 0 W/m 20,9 km/h (4 Bft)
16.08.2015 01:58 15,7 C 14,4 C 97 % 15 lf 1012,2 hPa 0,0 l/m 0 min 2 min 0 W/m 25,1 km/h (4 Bft)
16.08.2015 02:00 15,7 C 14,4 C 97 % 15 lf 1012,2 hPa 0,2 l/m 0 min 2 min 0 W/m 18,8 km/h (3 Bft)
16.08.2015 02:02 15,7 C 14,4 C 97 % 15 lf 1012,2 hPa 0,0 l/m 0 min 2 min 0 W/m 29,3 km/h (5 Bft)
16.08.2015 02:04 15,7 C 14,4 C 97 % 15 lf 1012,2 hPa 0,2 l/m 0 min 2 min 0 W/m 20,9 km/h (4 Bft)
16.08.2015 02:06 15,7 C 14,4 C 98 % 15 lf 1012,3 hPa 0,0 l/m 0 min 2 min 0 W/m 18,8 km/h (3 Bft)
16.08.2015 02:08 15,7 C 14,4 C 98 % 15 lf 1012,4 hPa 0,2 l/m 0 min 2 min 0 W/m 16,7 km/h (3 Bft)
16.08.2015 02:10 15,7 C 14,4 C 98 % 15 lf 1012,4 hPa 0,4 l/m 0 min 2 min 0 W/m 16,7 km/h (3 Bft)
16.08.2015 02:12 15,7 C 14,4 C 98 % 15 lf 1012,4 hPa 0,4 l/m 0 min 2 min 0 W/m 23,0 km/h (4 Bft)
16.08.2015 02:14 15,7 C 14,4 C 98 % 15 lf 1012,3 hPa 0,4 l/m 0 min 2 min 0 W/m 16,7 km/h (3 Bft)
16.08.2015 02:16 15,7 C 14,4 C 98 % 15 lf 1012,4 hPa 0,2 l/m 0 min 2 min 0 W/m 20,9 km/h (4 Bft)
16.08.2015 02:18 15,7 C 14,4 C 98 % 15 lf 1012,3 hPa 0,0 l/m 0 min 2 min 0 W/m 25,1 km/h (4 Bft)
16.08.2015 02:20 15,7 C 14,4 C 98 % 15 lf 1012,3 hPa 0,2 l/m 0 min 2 min 0 W/m 25,1 km/h (4 Bft)
16.08.2015 02:22 15,7 C 14,4 C 98 % 15 lf 1012,4 hPa 0,0 l/m 0 min 2 min 0 W/m 20,9 km/h (4 Bft)
16.08.2015 02:24 15,7 C 14,4 C 98 % 15 lf 1012,4 hPa 0,2 l/m 0 min 2 min 0 W/m 16,7 km/h (3 Bft)
16.08.2015 02:26 15,7 C 14,4 C 98 % 15 lf 1012,4 hPa 0,0 l/m 0 min 2 min 0 W/m 12,6 km/h (3 Bft)
16.08.2015 02:28 15,7 C 14,4 C 98 % 15 lf 1012,4 hPa 0,0 l/m 0 min 2 min 0 W/m 23,0 km/h (4 Bft)
16.08.2015 02:30 15,7 C 14,4 C 98 % 15 lf 1012,4 hPa 0,2 l/m 0 min 2 min 0 W/m 20,9 km/h (4 Bft)
16.08.2015 02:32 15,7 C 14,4 C 98 % 15 lf 1012,4 hPa 0,2 l/m 0 min 2 min 0 W/m 23,0 km/h (4 Bft)
16.08.2015 02:34 15,7 C 14,4 C 98 % 15 lf 1012,5 hPa 0,2 l/m 0 min 2 min 0 W/m 23,0 km/h (4 Bft)
16.08.2015 02:36 15,6 C 14,4 C 98 % 15 lf 1012,5 hPa 0,0 l/m 0 min 2 min 0 W/m 12,6 km/h (3 Bft)
16.08.2015 02:38 15,6 C 14,4 C 98 % 15 lf 1012,5 hPa 0,2 l/m 0 min 2 min 0 W/m 25,1 km/h (4 Bft)
16.08.2015 02:40 15,6 C 14,4 C 98 % 15 lf 1012,5 hPa 0,0 l/m 0 min 2 min 0 W/m 16,7 km/h (3 Bft)
16.08.2015 02:42 15,6 C 14,4 C 98 % 15 lf 1012,5 hPa 0,2 l/m 0 min 2 min 0 W/m 20,9 km/h (4 Bft)
16.08.2015 02:44 15,6 C 14,4 C 98 % 15 lf 1012,5 hPa 0,2 l/m 0 min 2 min 0 W/m 20,9 km/h (4 Bft)
16.08.2015 02:46 15,6 C 14,4 C 98 % 15 lf 1012,5 hPa 0,0 l/m 0 min 2 min 0 W/m 14,6 km/h (3 Bft)
16.08.2015 02:48 15,6 C 14,4 C 98 % 15 lf 1012,4 hPa 0,0 l/m 0 min 2 min 0 W/m 20,9 km/h (4 Bft)
16.08.2015 02:50 15,6 C 14,4 C 98 % 15 lf 1012,5 hPa 0,2 l/m 0 min 2 min 0 W/m 20,9 km/h (4 Bft)
16.08.2015 02:52 15,6 C 14,4 C 98 % 15 lf 1012,5 hPa 0,0 l/m 0 min 2 min 0 W/m 14,6 km/h (3 Bft)
16.08.2015 02:54 15,6 C 14,4 C 98 % 15 lf 1012,5 hPa 0,2 l/m 0 min 2 min 0 W/m 18,8 km/h (3 Bft)
16.08.2015 02:56 15,6 C 14,4 C 98 % 15 lf 1012,5 hPa 0,0 l/m 0 min 2 min 0 W/m 16,7 km/h (3 Bft)
16.08.2015 02:58 15,6 C 14,4 C 98 % 15 lf 1012,5 hPa 0,2 l/m 0 min 2 min 0 W/m 25,1 km/h (4 Bft)
16.08.2015 03:00 15,6 C 14,4 C 98 % 15 lf 1012,5 hPa 0,0 l/m 0 min 2 min 0 W/m 16,7 km/h (3 Bft)
16.08.2015 03:02 15,6 C 14,4 C 98 % 15 lf 1012,5 hPa 0,2 l/m 0 min 2 min 0 W/m 20,9 km/h (4 Bft)
16.08.2015 03:04 15,5 C 14,4 C 98 % 15 lf 1012,5 hPa 0,0 l/m 0 min 2 min 0 W/m 14,6 km/h (3 Bft)
16.08.2015 03:06 15,5 C 14,4 C 98 % 15 lf 1012,5 hPa 0,2 l/m 0 min 2 min 0 W/m 14,6 km/h (3 Bft)
16.08.2015 03:08 15,5 C 14,4 C 98 % 15 lf 1012,5 hPa 0,0 l/m 0 min 2 min 0 W/m 20,9 km/h (4 Bft)
16.08.2015 03:10 15,5 C 14,4 C 98 % 15 lf 1012,5 hPa 0,2 l/m 0 min 2 min 0 W/m 16,7 km/h (3 Bft)
16.08.2015 03:12 15,5 C 14,4 C 98 % 15 lf 1012,5 hPa 0,0 l/m 0 min 2 min 0 W/m 16,7 km/h (3 Bft)
16.08.2015 03:14 15,5 C 14,4 C 98 % 15 lf 1012,5 hPa 0,0 l/m 0 min 2 min 0 W/m 10,5 km/h (2 Bft)
16.08.2015 03:16 15,5 C 14,4 C 98 % 15 lf 1012,5 hPa 0,0 l/m 0 min 2 min 0 W/m 12,6 km/h (3 Bft)
16.08.2015 03:18 15,5 C 14,4 C 98 % 15 lf 1012,5 hPa 0,2 l/m 0 min 2 min 0 W/m 14,6 km/h (3 Bft)
16.08.2015 03:20 15,5 C 14,4 C 98 % 15 lf 1012,5 hPa 0,0 l/m 0 min 2 min 0 W/m 14,6 km/h (3 Bft)
16.08.2015 03:22 15,5 C 14,4 C 98 % 15 lf 1012,5 hPa 0,0 l/m 0 min 2 min 0 W/m 14,6 km/h (3 Bft)
16.08.2015 03:24 15,5 C 14,4 C 98 % 15 lf 1012,6 hPa 0,0 l/m 0 min 2 min 0 W/m 14,6 km/h (3 Bft)
16.08.2015 03:26 15,5 C 14,4 C 98 % 15 lf 1012,5 hPa 0,2 l/m 0 min 2 min 0 W/m 16,7 km/h (3 Bft)
16.08.2015 03:28 15,5 C 14,4 C 98 % 15 lf 1012,6 hPa 0,0 l/m 0 min 2 min 0 W/m 18,8 km/h (3 Bft)
16.08.2015 03:30 15,5 C 14,4 C 98 % 15 lf 1012,5 hPa 0,0 l/m 0 min 2 min 0 W/m 12,6 km/h (3 Bft)
16.08.2015 03:32 15,5 C 14,4 C 98 % 15 lf 1012,5 hPa 0,0 l/m 0 min 2 min 0 W/m 20,9 km/h (4 Bft)
16.08.2015 03:34 15,5 C 14,4 C 98 % 15 lf 1012,5 hPa 0,0 l/m 0 min 2 min 0 W/m 14,6 km/h (3 Bft)
16.08.2015 03:36 15,5 C 14,4 C 98 % 15 lf 1012,5 hPa 0,0 l/m 0 min 2 min 0 W/m 18,8 km/h (3 Bft)
16.08.2015 03:38 15,5 C 14,4 C 98 % 15 lf 1012,6 hPa 0,0 l/m 0 min 2 min 0 W/m 12,6 km/h (3 Bft)
16.08.2015 03:40 15,5 C 14,4 C 98 % 15 lf 1012,5 hPa 0,0 l/m 0 min 2 min 0 W/m 23,0 km/h (4 Bft)
16.08.2015 03:42 15,5 C 14,4 C 98 % 15 lf 1012,5 hPa 0,0 l/m 0 min 2 min 0 W/m 18,8 km/h (3 Bft)
16.08.2015 03:44 15,5 C 14,4 C 98 % 15 lf 1012,5 hPa 0,0 l/m 0 min 2 min 0 W/m 12,6 km/h (3 Bft)
16.08.2015 03:46 15,5 C 14,4 C 98 % 15 lf 1012,6 hPa 0,0 l/m 0 min 2 min 0 W/m 18,8 km/h (3 Bft)
16.08.2015 03:48 15,4 C 14,4 C 98 % 15 lf 1012,6 hPa 0,0 l/m 0 min 2 min 0 W/m 14,6 km/h (3 Bft)
16.08.2015 03:50 15,4 C 14,4 C 98 % 15 lf 1012,6 hPa 0,0 l/m 0 min 2 min 0 W/m 12,6 km/h (3 Bft)
16.08.2015 03:52 15,4 C 14,4 C 98 % 15 lf 1012,6 hPa 0,0 l/m 0 min 2 min 0 W/m 12,6 km/h (3 Bft)
16.08.2015 03:54 15,4 C 14,4 C 98 % 15 lf 1012,6 hPa 0,0 l/m 0 min 2 min 0 W/m 14,6 km/h (3 Bft)
16.08.2015 03:56 15,4 C 13,9 C 98 % 15 lf 1012,6 hPa 0,2 l/m 0 min 2 min 0 W/m 18,8 km/h (3 Bft)
16.08.2015 03:58 15,4 C 13,9 C 98 % 15 lf 1012,6 hPa 0,0 l/m 0 min 0 min 0 W/m 12,6 km/h (3 Bft)
16.08.2015 04:00 15,4 C 13,9 C 98 % 15 lf 1012,6 hPa 0,0 l/m 0 min 2 min 0 W/m 18,8 km/h (3 Bft)
16.08.2015 04:02 15,4 C 13,9 C 98 % 15 lf 1012,7 hPa 0,0 l/m 0 min 2 min 0 W/m 18,8 km/h (3 Bft)
16.08.2015 04:04 15,3 C 13,9 C 98 % 15 lf 1012,6 hPa 0,0 l/m 0 min 2 min 0 W/m 16,7 km/h (3 Bft)
16.08.2015 04:06 15,3 C 13,9 C 98 % 15 lf 1012,6 hPa 0,0 l/m 0 min 2 min 0 W/m 20,9 km/h (4 Bft)
16.08.2015 04:08 15,3 C 13,9 C 98 % 15 lf 1012,7 hPa 0,0 l/m 0 min 2 min 0 W/m 14,6 km/h (3 Bft)
16.08.2015 04:10 15,3 C 13,9 C 98 % 15 lf 1012,7 hPa 0,0 l/m 0 min 2 min 0 W/m 18,8 km/h (3 Bft)
16.08.2015 04:12 15,3 C 13,9 C 98 % 15 lf 1012,7 hPa 0,0 l/m 0 min 2 min 0 W/m 16,7 km/h (3 Bft)
16.08.2015 04:14 15,3 C 13,9 C 98 % 15 lf 1012,7 hPa 0,0 l/m 0 min 2 min 0 W/m 16,7 km/h (3 Bft)
16.08.2015 04:16 15,3 C 13,9 C 98 % 15 lf 1012,6 hPa 0,0 l/m 0 min 2 min 0 W/m 10,5 km/h (2 Bft)
16.08.2015 04:18 15,3 C 13,9 C 98 % 15 lf 1012,6 hPa 0,0 l/m 0 min 2 min 0 W/m 18,8 km/h (3 Bft)
16.08.2015 04:20 15,2 C 13,9 C 98 % 15 lf 1012,7 hPa 0,0 l/m 0 min 2 min 0 W/m 18,8 km/h (3 Bft)
16.08.2015 04:22 15,2 C 13,9 C 98 % 15 lf 1012,7 hPa 0,0 l/m 0 min 2 min 0 W/m 10,5 km/h (2 Bft)
16.08.2015 04:24 15,2 C 13,9 C 98 % 15 lf 1012,7 hPa 0,0 l/m 0 min 2 min 0 W/m 10,5 km/h (2 Bft)
16.08.2015 04:26 15,2 C 13,9 C 98 % 15 lf 1012,7 hPa 0,0 l/m 0 min 2 min 0 W/m 8,4 km/h (2 Bft)
16.08.2015 04:28 15,2 C 13,9 C 98 % 15 lf 1012,7 hPa 0,0 l/m 0 min 2 min 0 W/m 10,5 km/h (2 Bft)
16.08.2015 04:30 15,2 C 13,9 C 98 % 15 lf 1012,7 hPa 0,0 l/m 0 min 2 min 0 W/m 14,6 km/h (3 Bft)
16.08.2015 04:32 15,2 C 13,9 C 98 % 15 lf 1012,7 hPa 0,0 l/m 0 min 2 min 0 W/m 10,5 km/h (2 Bft)
16.08.2015 04:34 15,2 C 13,9 C 98 % 15 lf 1012,7 hPa 0,0 l/m 0 min 2 min 0 W/m 8,4 km/h (2 Bft)
16.08.2015 04:36 15,2 C 13,9 C 98 % 15 lf 1012,6 hPa 0,0 l/m 0 min 0 min 0 W/m 12,6 km/h (3 Bft)
16.08.2015 04:38 15,2 C 13,9 C 98 % 15 lf 1012,7 hPa 0,0 l/m 0 min 2 min 0 W/m 16,7 km/h (3 Bft)
16.08.2015 04:40 15,2 C 13,9 C 98 % 15 lf 1012,7 hPa 0,0 l/m 0 min 0 min 0 W/m 16,7 km/h (3 Bft)
16.08.2015 04:42 15,2 C 13,9 C 98 % 15 lf 1012,6 hPa 0,0 l/m 0 min 2 min 0 W/m 14,6 km/h (3 Bft)
16.08.2015 04:44 15,2 C 13,9 C 98 % 15 lf 1012,6 hPa 0,2 l/m 0 min 2 min 0 W/m 12,6 km/h (3 Bft)
16.08.2015 04:46 15,2 C 13,9 C 98 % 15 lf 1012,6 hPa 0,0 l/m 0 min 2 min 0 W/m 14,6 km/h (3 Bft)
16.08.2015 04:48 15,2 C 13,9 C 98 % 15 lf 1012,5 hPa 0,0 l/m 0 min 2 min 0 W/m 25,1 km/h (4 Bft)
16.08.2015 04:50 15,2 C 13,9 C 98 % 15 lf 1012,5 hPa 0,0 l/m 0 min 2 min 0 W/m 18,8 km/h (3 Bft)
16.08.2015 04:52 15,2 C 13,9 C 98 % 15 lf 1012,6 hPa 0,0 l/m 0 min 2 min 0 W/m 14,6 km/h (3 Bft)
16.08.2015 04:54 15,2 C 13,9 C 98 % 15 lf 1012,5 hPa 0,0 l/m 0 min 2 min 0 W/m 12,6 km/h (3 Bft)
16.08.2015 04:56 15,2 C 13,9 C 98 % 15 lf 1012,6 hPa 0,0 l/m 0 min 2 min 0 W/m 23,0 km/h (4 Bft)
16.08.2015 04:58 15,1 C 13,9 C 98 % 15 lf 1012,6 hPa 0,0 l/m 0 min 2 min 0 W/m 10,5 km/h (2 Bft)
16.08.2015 05:00 15,1 C 13,9 C 98 % 15 lf 1012,7 hPa 0,0 l/m 0 min 2 min 0 W/m 12,6 km/h (3 Bft)
16.08.2015 05:02 15,1 C 13,9 C 98 % 15 lf 1012,7 hPa 0,0 l/m 0 min 2 min 0 W/m 8,4 km/h (2 Bft)
16.08.2015 05:04 15,1 C 13,9 C 98 % 15 lf 1012,7 hPa 0,0 l/m 0 min 2 min 0 W/m 12,6 km/h (3 Bft)
16.08.2015 05:06 15,1 C 13,9 C 98 % 15 lf 1012,7 hPa 0,0 l/m 0 min 2 min 0 W/m 10,5 km/h (2 Bft)
16.08.2015 05:08 15,1 C 13,9 C 98 % 15 lf 1012,7 hPa 0,2 l/m 0 min 2 min 0 W/m 12,6 km/h (3 Bft)
16.08.2015 05:10 15,1 C 13,9 C 98 % 15 lf 1012,7 hPa 0,0 l/m 0 min 2 min 0 W/m 16,7 km/h (3 Bft)
16.08.2015 05:12 15,1 C 13,9 C 98 % 15 lf 1012,7 hPa 0,0 l/m 0 min 2 min 0 W/m 12,6 km/h (3 Bft)
16.08.2015 05:14 15,1 C 13,9 C 98 % 15 lf 1012,7 hPa 0,0 l/m 0 min 2 min 0 W/m 14,6 km/h (3 Bft)
16.08.2015 05:16 15,1 C 13,9 C 98 % 15 lf 1012,7 hPa 0,0 l/m 0 min 2 min 0 W/m 10,5 km/h (2 Bft)
16.08.2015 05:18 15,1 C 13,9 C 98 % 15 lf 1012,7 hPa 0,0 l/m 0 min 2 min 0 W/m 18,8 km/h (3 Bft)
16.08.2015 05:20 15,1 C 13,9 C 98 % 15 lf 1012,7 hPa 0,0 l/m 0 min 2 min 0 W/m 10,5 km/h (2 Bft)
16.08.2015 05:22 15,1 C 13,9 C 98 % 15 lf 1012,7 hPa 0,0 l/m 0 min 2 min 0 W/m 12,6 km/h (3 Bft)
16.08.2015 05:24 15,1 C 13,9 C 98 % 15 lf 1012,7 hPa 0,0 l/m 0 min 0 min 0 W/m 14,6 km/h (3 Bft)
16.08.2015 05:26 15,1 C 13,9 C 98 % 15 lf 1012,7 hPa 0,0 l/m 0 min 0 min 0 W/m 14,6 km/h (3 Bft)
16.08.2015 05:28 15,1 C 13,9 C 98 % 15 lf 1012,7 hPa 0,0 l/m 0 min 0 min 0 W/m 10,5 km/h (2 Bft)
16.08.2015 05:30 15,1 C 13,9 C 98 % 15 lf 1012,6 hPa 0,0 l/m 0 min 0 min 0 W/m 12,6 km/h (3 Bft)
16.08.2015 05:32 15,1 C 13,9 C 98 % 15 lf 1012,6 hPa 0,0 l/m 0 min 0 min 0 W/m 12,6 km/h (3 Bft)
16.08.2015 05:34 15,1 C 13,9 C 98 % 15 lf 1012,6 hPa 0,0 l/m 0 min 0 min 0 W/m 12,6 km/h (3 Bft)
16.08.2015 05:36 15,1 C 13,9 C 98 % 15 lf 1012,6 hPa 0,0 l/m 0 min 0 min 0 W/m 10,5 km/h (2 Bft)
16.08.2015 05:38 15,1 C 13,9 C 98 % 15 lf 1012,6 hPa 0,0 l/m 0 min 0 min 0 W/m 14,6 km/h (3 Bft)
16.08.2015 05:40 15,1 C 13,9 C 98 % 15 lf 1012,6 hPa 0,0 l/m 0 min 0 min 0 W/m 14,6 km/h (3 Bft)
16.08.2015 05:42 15,1 C 13,9 C 98 % 15 lf 1012,7 hPa 0,0 l/m 0 min 0 min 0 W/m 8,4 km/h (2 Bft)
16.08.2015 05:44 15,1 C 13,9 C 98 % 15 lf 1012,8 hPa 0,0 l/m 0 min 0 min 0 W/m 8,4 km/h (2 Bft)
16.08.2015 05:46 15,1 C 13,9 C 98 % 15 lf 1012,7 hPa 0,0 l/m 0 min 0 min 0 W/m 14,6 km/h (3 Bft)
16.08.2015 05:48 15,1 C 13,9 C 98 % 15 lf 1012,8 hPa 0,0 l/m 0 min 0 min 0 W/m 14,6 km/h (3 Bft)
16.08.2015 05:50 15,1 C 13,9 C 98 % 15 lf 1012,7 hPa 0,0 l/m 0 min 0 min 0 W/m 8,4 km/h (2 Bft)
16.08.2015 05:52 15,1 C 13,9 C 98 % 15 lf 1012,6 hPa 0,0 l/m 0 min 0 min 0 W/m 16,7 km/h (3 Bft)
16.08.2015 05:54 15,1 C 13,9 C 98 % 15 lf 1012,6 hPa 0,0 l/m 0 min 0 min 0 W/m 14,6 km/h (3 Bft)
16.08.2015 05:56 15,1 C 13,9 C 98 % 15 lf 1012,5 hPa 0,0 l/m 0 min 0 min 0 W/m 14,6 km/h (3 Bft)
16.08.2015 05:58 15,1 C 13,9 C 98 % 15 lf 1012,6 hPa 0,0 l/m 0 min 0 min 0 W/m 12,6 km/h (3 Bft)
16.08.2015 06:00 15,1 C 13,9 C 98 % 15 lf 1012,5 hPa 0,0 l/m 0 min 0 min 0 W/m 14,6 km/h (3 Bft)
16.08.2015 06:02 15,1 C 13,9 C 98 % 15 lf 1012,6 hPa 0,0 l/m 0 min 0 min 0 W/m 16,7 km/h (3 Bft)
16.08.2015 06:05 15,1 C 13,9 C 98 % 15 lf 1012,7 hPa 0,0 l/m 0 min 0 min 0 W/m 12,6 km/h (3 Bft)
16.08.2015 06:06 15,1 C 13,9 C 98 % 15 lf 1012,6 hPa 0,0 l/m 0 min 0 min 0 W/m 12,6 km/h (3 Bft)
16.08.2015 06:08 15,1 C 13,9 C 98 % 15 lf 1012,6 hPa 0,0 l/m 0 min 0 min 0 W/m 8,4 km/h (2 Bft)
16.08.2015 06:10 15,1 C 13,9 C 98 % 15 lf 1012,6 hPa 0,0 l/m 0 min 0 min 0 W/m 10,5 km/h (2 Bft)
16.08.2015 06:12 15,1 C 13,9 C 98 % 15 lf 1012,7 hPa 0,0 l/m 0 min 0 min 0 W/m 10,5 km/h (2 Bft)
16.08.2015 06:14 15,1 C 13,9 C 98 % 15 lf 1012,7 hPa 0,0 l/m 0 min 0 min 0 W/m 14,6 km/h (3 Bft)
16.08.2015 06:16 15,1 C 13,9 C 98 % 15 lf 1012,6 hPa 0,0 l/m 0 min 0 min 0 W/m 14,6 km/h (3 Bft)
16.08.2015 06:18 15,1 C 13,9 C 98 % 15 lf 1012,6 hPa 0,0 l/m 0 min 0 min 0 W/m 10,5 km/h (2 Bft)
16.08.2015 06:20 15,1 C 13,9 C 98 % 15 lf 1012,7 hPa 0,0 l/m 0 min 0 min 0 W/m 8,4 km/h (2 Bft)
16.08.2015 06:22 15,1 C 13,9 C 98 % 15 lf 1012,7 hPa 0,0 l/m 0 min 0 min 0 W/m 10,5 km/h (2 Bft)
16.08.2015 06:24 15,1 C 13,9 C 98 % 15 lf 1012,7 hPa 0,0 l/m 0 min 0 min 0 W/m 12,6 km/h (3 Bft)
16.08.2015 06:26 15,0 C 13,9 C 98 % 15 lf 1012,6 hPa 0,0 l/m 0 min 0 min 0 W/m 12,6 km/h (3 Bft)
16.08.2015 06:28 15,0 C 13,9 C 98 % 15 lf 1012,8 hPa 0,0 l/m 0 min 0 min 0 W/m 10,5 km/h (2 Bft)
16.08.2015 06:30 15,0 C 13,9 C 98 % 15 lf 1012,7 hPa 0,0 l/m 0 min 0 min 0 W/m 10,5 km/h (2 Bft)
16.08.2015 06:32 15,0 C 13,9 C 98 % 15 lf 1012,7 hPa 0,0 l/m 0 min 0 min 0 W/m 12,6 km/h (3 Bft)
16.08.2015 06:34 15,0 C 13,9 C 98 % 15 lf 1012,7 hPa 0,0 l/m 0 min 0 min 0 W/m 14,6 km/h (3 Bft)
16.08.2015 06:36 15,0 C 13,9 C 98 % 15 lf 1012,7 hPa 0,0 l/m 0 min 0 min 0 W/m 12,6 km/h (3 Bft)
16.08.2015 06:38 15,0 C 13,9 C 98 % 15 lf 1012,7 hPa 0,0 l/m 0 min 0 min 0 W/m 16,7 km/h (3 Bft)
16.08.2015 06:40 15,0 C 13,9 C 98 % 15 lf 1012,7 hPa 0,0 l/m 0 min 0 min 0 W/m 10,5 km/h (2 Bft)
16.08.2015 06:42 15,0 C 13,9 C 98 % 15 lf 1012,7 hPa 0,0 l/m 0 min 0 min 3 W/m 10,5 km/h (2 Bft)
16.08.2015 06:44 15,0 C 13,9 C 99 % 15 lf 1012,8 hPa 0,0 l/m 0 min 0 min 5 W/m 18,8 km/h (3 Bft)
16.08.2015 06:46 15,0 C 13,9 C 99 % 15 lf 1012,7 hPa 0,0 l/m 0 min 0 min 6 W/m 14,6 km/h (3 Bft)
16.08.2015 06:48 15,0 C 13,9 C 99 % 15 lf 1012,7 hPa 0,0 l/m 0 min 0 min 6 W/m 10,5 km/h (2 Bft)
16.08.2015 06:50 15,0 C 13,9 C 99 % 15 lf 1012,7 hPa 0,0 l/m 0 min 0 min 7 W/m 8,4 km/h (2 Bft)
16.08.2015 06:52 15,0 C 13,9 C 99 % 15 lf 1012,7 hPa 0,0 l/m 0 min 0 min 7 W/m 12,6 km/h (3 Bft)
16.08.2015 06:54 15,0 C 13,9 C 99 % 15 lf 1012,7 hPa 0,0 l/m 0 min 0 min 7 W/m 10,5 km/h (2 Bft)
16.08.2015 06:56 15,0 C 13,9 C 99 % 15 lf 1012,7 hPa 0,0 l/m 0 min 0 min 10 W/m 6,3 km/h (2 Bft)
16.08.2015 06:58 15,1 C 13,9 C 99 % 15 lf 1012,7 hPa 0,0 l/m 0 min 0 min 11 W/m 12,6 km/h (3 Bft)
16.08.2015 07:00 15,1 C 13,9 C 99 % 15 lf 1012,7 hPa 0,0 l/m 0 min 0 min 11 W/m 14,6 km/h (3 Bft)
16.08.2015 07:02 15,1 C 13,9 C 99 % 15 lf 1012,7 hPa 0,0 l/m 0 min 0 min 9 W/m 10,5 km/h (2 Bft)
16.08.2015 07:04 15,1 C 13,9 C 99 % 15 lf 1012,7 hPa 0,0 l/m 0 min 0 min 9 W/m 10,5 km/h (2 Bft)
16.08.2015 07:06 15,1 C 13,9 C 99 % 15 lf 1012,7 hPa 0,0 l/m 0 min 0 min 10 W/m 18,8 km/h (3 Bft)
16.08.2015 07:08 15,1 C 13,9 C 99 % 15 lf 1012,7 hPa 0,0 l/m 0 min 0 min 11 W/m 14,6 km/h (3 Bft)
16.08.2015 07:10 15,1 C 13,9 C 99 % 15 lf 1012,8 hPa 0,0 l/m 0 min 0 min 12 W/m 10,5 km/h (2 Bft)
16.08.2015 07:12 15,1 C 13,9 C 99 % 15 lf 1012,8 hPa 0,0 l/m 0 min 0 min 12 W/m 12,6 km/h (3 Bft)
16.08.2015 07:14 15,1 C 13,9 C 99 % 15 lf 1012,8 hPa 0,0 l/m 0 min 2 min 14 W/m 14,6 km/h (3 Bft)
16.08.2015 07:16 15,1 C 13,9 C 99 % 15 lf 1012,9 hPa 0,0 l/m 0 min 2 min 14 W/m 8,4 km/h (2 Bft)
16.08.2015 07:18 15,1 C 13,9 C 99 % 15 lf 1012,8 hPa 0,0 l/m 0 min 2 min 14 W/m 8,4 km/h (2 Bft)
16.08.2015 07:20 15,1 C 13,9 C 99 % 15 lf 1012,8 hPa 0,0 l/m 0 min 2 min 16 W/m 14,6 km/h (3 Bft)
16.08.2015 07:22 15,1 C 13,9 C 99 % 15 lf 1012,8 hPa 0,0 l/m 0 min 2 min 17 W/m 14,6 km/h (3 Bft)
16.08.2015 07:24 15,1 C 13,9 C 99 % 15 lf 1012,9 hPa 0,0 l/m 0 min 2 min 18 W/m 14,6 km/h (3 Bft)
16.08.2015 07:26 15,1 C 13,9 C 99 % 15 lf 1012,9 hPa 0,0 l/m 0 min 2 min 19 W/m 18,8 km/h (3 Bft)
16.08.2015 07:28 15,1 C 13,9 C 99 % 15 lf 1012,9 hPa 0,0 l/m 0 min 2 min 21 W/m 16,7 km/h (3 Bft)
16.08.2015 07:30 15,1 C 13,9 C 99 % 15 lf 1012,9 hPa 0,2 l/m 0 min 2 min 22 W/m 12,6 km/h (3 Bft)
16.08.2015 07:32 15,1 C 14,4 C 99 % 15 lf 1012,9 hPa 0,0 l/m 0 min 2 min 22 W/m 14,6 km/h (3 Bft)
16.08.2015 07:34 15,1 C 13,9 C 99 % 15 lf 1012,9 hPa 0,0 l/m 0 min 2 min 21 W/m 12,6 km/h (3 Bft)
16.08.2015 07:36 15,1 C 13,9 C 99 % 15 lf 1012,9 hPa 0,0 l/m 0 min 2 min 22 W/m 12,6 km/h (3 Bft)
16.08.2015 07:38 15,1 C 13,9 C 99 % 15 lf 1012,9 hPa 0,0 l/m 0 min 2 min 24 W/m 14,6 km/h (3 Bft)
16.08.2015 07:40 15,1 C 13,9 C 99 % 15 lf 1013,0 hPa 0,0 l/m 0 min 2 min 22 W/m 10,5 km/h (2 Bft)
16.08.2015 07:42 15,1 C 14,4 C 99 % 15 lf 1013,0 hPa 0,0 l/m 0 min 2 min 19 W/m 12,6 km/h (3 Bft)
16.08.2015 07:44 15,2 C 13,9 C 99 % 15 lf 1013,0 hPa 0,0 l/m 0 min 2 min 19 W/m 12,6 km/h (3 Bft)
16.08.2015 07:46 15,1 C 13,9 C 99 % 15 lf 1013,1 hPa 0,0 l/m 0 min 2 min 21 W/m 18,8 km/h (3 Bft)
16.08.2015 07:48 15,2 C 13,9 C 99 % 15 lf 1013,1 hPa 0,0 l/m 0 min 2 min 21 W/m 10,5 km/h (2 Bft)
16.08.2015 07:50 15,2 C 13,9 C 99 % 15 lf 1013,1 hPa 0,0 l/m 0 min 2 min 18 W/m 10,5 km/h (2 Bft)
16.08.2015 07:52 15,2 C 14,4 C 99 % 15 lf 1013,2 hPa 0,0 l/m 0 min 2 min 18 W/m 16,7 km/h (3 Bft)
16.08.2015 07:54 15,2 C 14,4 C 99 % 15 lf 1013,2 hPa 0,0 l/m 0 min 2 min 20 W/m 20,9 km/h (4 Bft)
16.08.2015 07:56 15,2 C 13,9 C 99 % 15 lf 1013,2 hPa 0,0 l/m 0 min 2 min 19 W/m 14,6 km/h (3 Bft)
16.08.2015 07:58 15,2 C 14,4 C 99 % 15 lf 1013,3 hPa 0,0 l/m 0 min 2 min 19 W/m 16,7 km/h (3 Bft)
16.08.2015 08:00 15,2 C 14,4 C 99 % 15 lf 1013,3 hPa 0,0 l/m 0 min 2 min 23 W/m 10,5 km/h (2 Bft)
16.08.2015 08:02 15,2 C 13,9 C 99 % 15 lf 1013,2 hPa 0,0 l/m 0 min 2 min 25 W/m 16,7 km/h (3 Bft)
16.08.2015 08:04 15,2 C 13,9 C 99 % 15 lf 1013,3 hPa 0,2 l/m 0 min 2 min 25 W/m 18,8 km/h (3 Bft)
16.08.2015 08:06 15,2 C 13,9 C 99 % 15 lf 1013,3 hPa 0,0 l/m 0 min 2 min 20 W/m 12,6 km/h (3 Bft)
16.08.2015 08:08 15,2 C 14,4 C 99 % 15 lf 1013,3 hPa 0,0 l/m 0 min 2 min 19 W/m 16,7 km/h (3 Bft)
16.08.2015 08:10 15,2 C 13,9 C 99 % 15 lf 1013,3 hPa 0,0 l/m 0 min 2 min 20 W/m 18,8 km/h (3 Bft)
16.08.2015 08:12 15,2 C 13,9 C 99 % 15 lf 1013,4 hPa 0,2 l/m 0 min 2 min 30 W/m 12,6 km/h (3 Bft)
16.08.2015 08:14 15,2 C 14,4 C 99 % 15 lf 1013,3 hPa 0,0 l/m 0 min 2 min 36 W/m 18,8 km/h (3 Bft)
16.08.2015 08:16 15,2 C 13,9 C 99 % 15 lf 1013,4 hPa 0,0 l/m 0 min 2 min 34 W/m 18,8 km/h (3 Bft)
16.08.2015 08:18 15,2 C 13,9 C 99 % 15 lf 1013,4 hPa 0,0 l/m 0 min 2 min 35 W/m 14,6 km/h (3 Bft)
16.08.2015 08:20 15,2 C 13,9 C 99 % 15 lf 1013,3 hPa 0,0 l/m 0 min 2 min 37 W/m 23,0 km/h (4 Bft)
16.08.2015 08:22 15,1 C 13,9 C 99 % 15 lf 1013,3 hPa 0,0 l/m 0 min 2 min 37 W/m 23,0 km/h (4 Bft)
16.08.2015 08:24 15,1 C 13,9 C 99 % 15 lf 1013,3 hPa 0,0 l/m 0 min 2 min 40 W/m 14,6 km/h (3 Bft)
16.08.2015 08:26 15,1 C 13,9 C 99 % 15 lf 1013,3 hPa 0,0 l/m 0 min 2 min 42 W/m 16,7 km/h (3 Bft)
16.08.2015 08:28 15,1 C 13,9 C 99 % 15 lf 1013,3 hPa 0,0 l/m 0 min 2 min 42 W/m 18,8 km/h (3 Bft)
16.08.2015 08:30 15,1 C 13,9 C 99 % 15 lf 1013,3 hPa 0,0 l/m 0 min 2 min 42 W/m 16,7 km/h (3 Bft)
16.08.2015 08:32 15,1 C 13,9 C 99 % 15 lf 1013,3 hPa 0,0 l/m 0 min 2 min 39 W/m 10,5 km/h (2 Bft)
16.08.2015 08:34 15,1 C 13,9 C 99 % 15 lf 1013,4 hPa 0,2 l/m 0 min 2 min 40 W/m 12,6 km/h (3 Bft)
16.08.2015 08:36 15,1 C 13,9 C 99 % 15 lf 1013,3 hPa 0,0 l/m 0 min 2 min 40 W/m 18,8 km/h (3 Bft)
16.08.2015 08:38 15,1 C 13,9 C 99 % 15 lf 1013,3 hPa 0,0 l/m 0 min 2 min 37 W/m 14,6 km/h (3 Bft)
16.08.2015 08:40 15,1 C 13,9 C 99 % 15 lf 1013,3 hPa 0,0 l/m 0 min 2 min 38 W/m 14,6 km/h (3 Bft)
16.08.2015 08:42 15,1 C 13,9 C 99 % 15 lf 1013,4 hPa 0,0 l/m 0 min 0 min 39 W/m 12,6 km/h (3 Bft)
16.08.2015 08:44 15,1 C 13,9 C 99 % 15 lf 1013,4 hPa 0,0 l/m 0 min 0 min 38 W/m 18,8 km/h (3 Bft)
16.08.2015 08:46 15,1 C 13,9 C 99 % 15 lf 1013,4 hPa 0,0 l/m 0 min 0 min 38 W/m 16,7 km/h (3 Bft)
16.08.2015 08:48 15,1 C 13,9 C 99 % 15 lf 1013,4 hPa 0,0 l/m 0 min 0 min 40 W/m 14,6 km/h (3 Bft)
16.08.2015 08:50 15,1 C 13,9 C 99 % 15 lf 1013,3 hPa 0,0 l/m 0 min 0 min 46 W/m 18,8 km/h (3 Bft)
16.08.2015 08:52 15,1 C 13,9 C 99 % 15 lf 1013,4 hPa 0,0 l/m 0 min 0 min 52 W/m 18,8 km/h (3 Bft)
16.08.2015 08:54 15,1 C 13,9 C 99 % 15 lf 1013,4 hPa 0,0 l/m 0 min 2 min 54 W/m 14,6 km/h (3 Bft)
16.08.2015 08:56 15,1 C 13,9 C 99 % 15 lf 1013,4 hPa 0,0 l/m 0 min 2 min 59 W/m 16,7 km/h (3 Bft)
16.08.2015 08:58 15,1 C 13,9 C 99 % 15 lf 1013,4 hPa 0,0 l/m 0 min 2 min 60 W/m 14,6 km/h (3 Bft)
16.08.2015 09:00 15,1 C 13,9 C 99 % 15 lf 1013,4 hPa 0,0 l/m 0 min 2 min 58 W/m 16,7 km/h (3 Bft)
16.08.2015 09:02 15,1 C 13,9 C 99 % 15 lf 1013,5 hPa 0,0 l/m 0 min 2 min 59 W/m 14,6 km/h (3 Bft)
16.08.2015 09:04 15,1 C 13,9 C 99 % 15 lf 1013,5 hPa 0,0 l/m 0 min 2 min 60 W/m 20,9 km/h (4 Bft)
16.08.2015 09:06 15,1 C 13,9 C 99 % 15 lf 1013,5 hPa 0,0 l/m 0 min 2 min 62 W/m 20,9 km/h (4 Bft)
16.08.2015 09:08 15,1 C 13,9 C 99 % 15 lf 1013,5 hPa 0,0 l/m 0 min 2 min 63 W/m 14,6 km/h (3 Bft)
16.08.2015 09:10 15,1 C 13,9 C 99 % 15 lf 1013,4 hPa 0,2 l/m 0 min 2 min 64 W/m 12,6 km/h (3 Bft)
16.08.2015 09:12 15,0 C 13,9 C 99 % 15 lf 1013,5 hPa 0,0 l/m 0 min 2 min 63 W/m 16,7 km/h (3 Bft)
16.08.2015 09:14 15,1 C 13,9 C 99 % 15 lf 1013,5 hPa 0,0 l/m 0 min 2 min 61 W/m 16,7 km/h (3 Bft)
16.08.2015 09:16 15,1 C 13,9 C 99 % 15 lf 1013,5 hPa 0,0 l/m 0 min 2 min 62 W/m 14,6 km/h (3 Bft)
16.08.2015 09:18 15,1 C 13,9 C 99 % 15 lf 1013,5 hPa 0,2 l/m 0 min 2 min 63 W/m 18,8 km/h (3 Bft)
16.08.2015 09:20 15,0 C 13,9 C 99 % 15 lf 1013,6 hPa 0,2 l/m 0 min 2 min 64 W/m 14,6 km/h (3 Bft)
16.08.2015 09:22 15,0 C 13,9 C 99 % 15 lf 1013,5 hPa 0,2 l/m 0 min 2 min 66 W/m 14,6 km/h (3 Bft)
16.08.2015 09:24 15,0 C 13,9 C 99 % 15 lf 1013,6 hPa 0,0 l/m 0 min 2 min 64 W/m 20,9 km/h (4 Bft)
16.08.2015 09:26 15,0 C 13,9 C 99 % 15 lf 1013,6 hPa 0,0 l/m 0 min 2 min 69 W/m 14,6 km/h (3 Bft)
16.08.2015 09:28 15,0 C 13,9 C 99 % 15 lf 1013,6 hPa 0,2 l/m 0 min 2 min 75 W/m 10,5 km/h (2 Bft)
16.08.2015 09:30 15,0 C 13,9 C 99 % 15 lf 1013,6 hPa 0,0 l/m 0 min 2 min 65 W/m 12,6 km/h (3 Bft)
16.08.2015 09:32 15,1 C 13,9 C 99 % 15 lf 1013,6 hPa 0,0 l/m 0 min 2 min 65 W/m 20,9 km/h (4 Bft)
16.08.2015 09:34 15,0 C 13,9 C 99 % 15 lf 1013,6 hPa 0,0 l/m 0 min 2 min 64 W/m 16,7 km/h (3 Bft)
16.08.2015 09:36 15,0 C 13,9 C 99 % 15 lf 1013,7 hPa 0,0 l/m 0 min 2 min 66 W/m 16,7 km/h (3 Bft)
16.08.2015 09:38 15,0 C 13,9 C 99 % 15 lf 1013,6 hPa 0,0 l/m 0 min 2 min 69 W/m 14,6 km/h (3 Bft)
16.08.2015 09:40 15,0 C 13,9 C 99 % 15 lf 1013,6 hPa 0,0 l/m 0 min 2 min 70 W/m 16,7 km/h (3 Bft)
16.08.2015 09:42 15,0 C 13,9 C 99 % 15 lf 1013,6 hPa 0,0 l/m 0 min 2 min 67 W/m 16,7 km/h (3 Bft)
16.08.2015 09:44 15,0 C 13,9 C 99 % 15 lf 1013,6 hPa 0,2 l/m 0 min 2 min 72 W/m 16,7 km/h (3 Bft)
16.08.2015 09:46 15,0 C 13,9 C 99 % 15 lf 1013,6 hPa 0,0 l/m 0 min 2 min 67 W/m 14,6 km/h (3 Bft)
16.08.2015 09:48 15,0 C 13,9 C 99 % 15 lf 1013,6 hPa 0,0 l/m 0 min 2 min 73 W/m 16,7 km/h (3 Bft)
16.08.2015 09:50 15,0 C 13,9 C 99 % 15 lf 1013,6 hPa 0,0 l/m 0 min 2 min 76 W/m 16,7 km/h (3 Bft)
16.08.2015 09:52 15,0 C 13,9 C 99 % 15 lf 1013,7 hPa 0,0 l/m 0 min 2 min 69 W/m 14,6 km/h (3 Bft)
16.08.2015 09:54 14,9 C 13,9 C 99 % 15 lf 1013,7 hPa 0,0 l/m 0 min 2 min 76 W/m 12,6 km/h (3 Bft)
16.08.2015 09:56 15,0 C 13,9 C 99 % 15 lf 1013,7 hPa 0,0 l/m 0 min 2 min 77 W/m 18,8 km/h (3 Bft)
16.08.2015 09:58 14,9 C 13,9 C 99 % 15 lf 1013,7 hPa 0,0 l/m 0 min 2 min 79 W/m 14,6 km/h (3 Bft)
16.08.2015 10:00 14,9 C 13,9 C 99 % 15 lf 1013,7 hPa 0,2 l/m 0 min 2 min 83 W/m 18,8 km/h (3 Bft)
16.08.2015 10:02 14,9 C 13,9 C 99 % 15 lf 1013,7 hPa 0,0 l/m 0 min 2 min 85 W/m 16,7 km/h (3 Bft)
16.08.2015 10:04 14,9 C 13,9 C 99 % 15 lf 1013,7 hPa 0,0 l/m 0 min 2 min 87 W/m 16,7 km/h (3 Bft)
16.08.2015 10:06 14,9 C 13,9 C 99 % 15 lf 1013,7 hPa 0,0 l/m 0 min 2 min 83 W/m 20,9 km/h (4 Bft)
16.08.2015 10:08 14,9 C 13,9 C 99 % 15 lf 1013,7 hPa 0,0 l/m 0 min 2 min 70 W/m 14,6 km/h (3 Bft)
16.08.2015 10:10 14,9 C 13,9 C 99 % 15 lf 1013,7 hPa 0,0 l/m 0 min 2 min 63 W/m 16,7 km/h (3 Bft)
16.08.2015 10:12 14,9 C 13,9 C 99 % 15 lf 1013,7 hPa 0,0 l/m 0 min 2 min 67 W/m 20,9 km/h (4 Bft)
16.08.2015 10:14 14,9 C 13,9 C 99 % 15 lf 1013,8 hPa 0,2 l/m 0 min 2 min 74 W/m 25,1 km/h (4 Bft)
16.08.2015 10:16 14,9 C 13,9 C 99 % 15 lf 1013,7 hPa 0,0 l/m 0 min 2 min 79 W/m 14,6 km/h (3 Bft)
16.08.2015 10:18 14,9 C 13,9 C 99 % 15 lf 1013,7 hPa 0,0 l/m 0 min 2 min 82 W/m 16,7 km/h (3 Bft)
16.08.2015 10:20 14,9 C 13,9 C 99 % 15 lf 1013,7 hPa 0,0 l/m 0 min 2 min 88 W/m 16,7 km/h (3 Bft)
16.08.2015 10:22 14,9 C 13,9 C 99 % 15 lf 1013,7 hPa 0,0 l/m 0 min 2 min 90 W/m 18,8 km/h (3 Bft)
16.08.2015 10:24 14,9 C 13,9 C 99 % 15 lf 1013,7 hPa 0,0 l/m 0 min 2 min 90 W/m 16,7 km/h (3 Bft)
16.08.2015 10:26 14,9 C 13,9 C 99 % 15 lf 1013,7 hPa 0,0 l/m 0 min 2 min 92 W/m 25,1 km/h (4 Bft)
16.08.2015 10:28 14,9 C 13,9 C 99 % 15 lf 1013,7 hPa 0,2 l/m 0 min 2 min 97 W/m 18,8 km/h (3 Bft)
16.08.2015 10:30 14,9 C 13,9 C 99 % 15 lf 1013,7 hPa 0,0 l/m 0 min 2 min 105 W/m 18,8 km/h (3 Bft)
16.08.2015 10:32 14,9 C 13,9 C 99 % 15 lf 1013,7 hPa 0,0 l/m 0 min 2 min 108 W/m 16,7 km/h (3 Bft)
16.08.2015 10:34 14,9 C 13,9 C 99 % 15 lf 1013,7 hPa 0,0 l/m 0 min 2 min 107 W/m 20,9 km/h (4 Bft)
16.08.2015 10:36 14,9 C 13,9 C 99 % 15 lf 1013,7 hPa 0,0 l/m 0 min 2 min 107 W/m 20,9 km/h (4 Bft)
16.08.2015 10:38 14,9 C 13,9 C 99 % 15 lf 1013,7 hPa 0,0 l/m 0 min 2 min 108 W/m 18,8 km/h (3 Bft)
16.08.2015 10:40 14,9 C 13,9 C 99 % 15 lf 1013,6 hPa 0,0 l/m 0 min 2 min 102 W/m 23,0 km/h (4 Bft)
16.08.2015 10:42 14,9 C 13,9 C 99 % 15 lf 1013,7 hPa 0,2 l/m 0 min 2 min 97 W/m 23,0 km/h (4 Bft)
16.08.2015 10:44 14,9 C 13,9 C 99 % 15 lf 1013,7 hPa 0,0 l/m 0 min 2 min 94 W/m 16,7 km/h (3 Bft)
16.08.2015 10:46 14,9 C 13,9 C 99 % 15 lf 1013,7 hPa 0,0 l/m 0 min 2 min 93 W/m 16,7 km/h (3 Bft)
16.08.2015 10:48 14,9 C 13,9 C 99 % 15 lf 1013,6 hPa 0,0 l/m 0 min 2 min 91 W/m 16,7 km/h (3 Bft)
16.08.2015 10:50 14,9 C 13,9 C 99 % 15 lf 1013,8 hPa 0,0 l/m 0 min 2 min 89 W/m 25,1 km/h (4 Bft)
16.08.2015 10:52 14,9 C 13,9 C 99 % 15 lf 1013,8 hPa 0,0 l/m 0 min 2 min 87 W/m 12,6 km/h (3 Bft)
16.08.2015 10:54 14,9 C 13,9 C 99 % 15 lf 1013,9 hPa 0,0 l/m 0 min 2 min 87 W/m 14,6 km/h (3 Bft)
16.08.2015 10:56 14,9 C 13,9 C 99 % 15 lf 1013,9 hPa 0,2 l/m 0 min 2 min 88 W/m 18,8 km/h (3 Bft)
16.08.2015 10:58 14,9 C 13,9 C 99 % 15 lf 1013,9 hPa 0,0 l/m 0 min 2 min 89 W/m 16,7 km/h (3 Bft)
16.08.2015 11:00 14,9 C 13,9 C 99 % 15 lf 1013,9 hPa 0,0 l/m 0 min 2 min 94 W/m 14,6 km/h (3 Bft)
16.08.2015 11:02 14,9 C 13,9 C 99 % 15 lf 1013,9 hPa 0,0 l/m 0 min 2 min 101 W/m 14,6 km/h (3 Bft)
16.08.2015 11:04 14,9 C 13,9 C 99 % 15 lf 1013,9 hPa 0,0 l/m 0 min 2 min 110 W/m 16,7 km/h (3 Bft)
16.08.2015 11:06 14,9 C 13,9 C 99 % 15 lf 1013,9 hPa 0,0 l/m 0 min 2 min 115 W/m 18,8 km/h (3 Bft)
16.08.2015 11:08 14,9 C 13,9 C 99 % 15 lf 1013,9 hPa 0,0 l/m 0 min 2 min 120 W/m 16,7 km/h (3 Bft)
16.08.2015 11:10 14,9 C 13,9 C 99 % 15 lf 1013,8 hPa 0,0 l/m 0 min 2 min 123 W/m 18,8 km/h (3 Bft)
16.08.2015 11:12 14,9 C 14,4 C 99 % 15 lf 1013,9 hPa 0,2 l/m 0 min 2 min 130 W/m 12,6 km/h (3 Bft)
16.08.2015 11:14 15,0 C 14,4 C 99 % 15 lf 1013,7 hPa 0,0 l/m 0 min 2 min 138 W/m 18,8 km/h (3 Bft)
16.08.2015 11:16 15,0 C 14,4 C 99 % 15 lf 1013,8 hPa 0,0 l/m 0 min 2 min 145 W/m 20,9 km/h (4 Bft)
16.08.2015 11:18 15,1 C 14,4 C 99 % 15 lf 1013,7 hPa 0,0 l/m 0 min 2 min 149 W/m 14,6 km/h (3 Bft)
16.08.2015 11:20 15,1 C 14,4 C 99 % 15 lf 1013,8 hPa 0,0 l/m 0 min 2 min 149 W/m 23,0 km/h (4 Bft)
16.08.2015 11:22 15,1 C 14,4 C 99 % 15 lf 1013,9 hPa 0,0 l/m 0 min 2 min 150 W/m 16,7 km/h (3 Bft)
16.08.2015 11:24 15,1 C 14,4 C 99 % 15 lf 1013,9 hPa 0,2 l/m 0 min 2 min 143 W/m 16,7 km/h (3 Bft)
16.08.2015 11:26 15,1 C 14,4 C 99 % 15 lf 1013,9 hPa 0,0 l/m 0 min 2 min 144 W/m 18,8 km/h (3 Bft)
16.08.2015 11:28 15,2 C 14,4 C 99 % 15 lf 1014,0 hPa 0,0 l/m 0 min 2 min 148 W/m 18,8 km/h (3 Bft)
16.08.2015 11:30 15,2 C 14,4 C 99 % 15 lf 1013,9 hPa 0,0 l/m 0 min 2 min 143 W/m 16,7 km/h (3 Bft)
16.08.2015 11:32 15,2 C 14,4 C 99 % 15 lf 1014,0 hPa 0,0 l/m 0 min 2 min 147 W/m 20,9 km/h (4 Bft)
16.08.2015 11:34 15,2 C 14,4 C 99 % 15 lf 1013,9 hPa 0,0 l/m 0 min 2 min 149 W/m 16,7 km/h (3 Bft)
16.08.2015 11:36 15,2 C 14,4 C 99 % 15 lf 1014,0 hPa 0,0 l/m 0 min 2 min 145 W/m 23,0 km/h (4 Bft)
16.08.2015 11:38 15,2 C 14,4 C 99 % 15 lf 1014,0 hPa 0,2 l/m 0 min 2 min 150 W/m 20,9 km/h (4 Bft)
16.08.2015 11:40 15,2 C 14,4 C 99 % 15 lf 1013,9 hPa 0,0 l/m 0 min 2 min 174 W/m 18,8 km/h (3 Bft)
16.08.2015 11:42 15,2 C 14,4 C 99 % 15 lf 1013,9 hPa 0,0 l/m 0 min 2 min 167 W/m 16,7 km/h (3 Bft)
16.08.2015 11:44 15,2 C 14,4 C 99 % 15 lf 1013,9 hPa 0,0 l/m 0 min 2 min 164 W/m 18,8 km/h (3 Bft)
16.08.2015 11:46 15,3 C 15,0 C 99 % 15 lf 1013,9 hPa 0,0 l/m 0 min 2 min 170 W/m 18,8 km/h (3 Bft)
16.08.2015 11:48 15,3 C 14,4 C 99 % 15 lf 1013,9 hPa 0,0 l/m 0 min 2 min 170 W/m 18,8 km/h (3 Bft)
16.08.2015 11:50 15,3 C 14,4 C 99 % 15 lf 1013,9 hPa 0,0 l/m 0 min 2 min 164 W/m 16,7 km/h (3 Bft)
16.08.2015 11:52 15,3 C 14,4 C 99 % 15 lf 1014,0 hPa 0,0 l/m 0 min 2 min 171 W/m 16,7 km/h (3 Bft)
16.08.2015 11:54 15,4 C 14,4 C 99 % 15 lf 1014,1 hPa 0,0 l/m 0 min 2 min 174 W/m 18,8 km/h (3 Bft)
16.08.2015 11:56 15,4 C 14,4 C 99 % 15 lf 1014,0 hPa 0,0 l/m 0 min 2 min 177 W/m 23,0 km/h (4 Bft)
16.08.2015 11:58 15,4 C 14,4 C 99 % 15 lf 1014,0 hPa 0,0 l/m 0 min 2 min 175 W/m 23,0 km/h (4 Bft)
16.08.2015 12:00 15,4 C 14,4 C 99 % 15 lf 1014,0 hPa 0,0 l/m 0 min 2 min 177 W/m 20,9 km/h (4 Bft)
16.08.2015 12:02 15,4 C 15,0 C 99 % 15 lf 1014,0 hPa 0,0 l/m 0 min 2 min 172 W/m 14,6 km/h (3 Bft)
16.08.2015 12:05 15,5 C 15,0 C 99 % 15 lf 1014,0 hPa 0,0 l/m 0 min 2 min 167 W/m 23,0 km/h (4 Bft)
16.08.2015 12:06 15,5 C 15,0 C 99 % 15 lf 1014,0 hPa 0,0 l/m 0 min 1 min 172 W/m 23,0 km/h (4 Bft)
16.08.2015 12:08 15,5 C 15,0 C 99 % 15 lf 1014,0 hPa 0,0 l/m 0 min 2 min 162 W/m 18,8 km/h (3 Bft)
16.08.2015 12:10 15,6 C 14,4 C 99 % 15 lf 1013,9 hPa 0,0 l/m 0 min 2 min 158 W/m 18,8 km/h (3 Bft)
16.08.2015 12:12 15,5 C 14,4 C 99 % 15 lf 1014,0 hPa 0,0 l/m 0 min 2 min 166 W/m 25,1 km/h (4 Bft)
16.08.2015 12:14 15,5 C 14,4 C 99 % 15 lf 1013,9 hPa 0,2 l/m 0 min 2 min 162 W/m 23,0 km/h (4 Bft)
16.08.2015 12:16 15,5 C 14,4 C 99 % 15 lf 1013,9 hPa 0,0 l/m 0 min 2 min 154 W/m 18,8 km/h (3 Bft)
16.08.2015 12:18 15,5 C 14,4 C 99 % 15 lf 1013,9 hPa 0,0 l/m 0 min 2 min 150 W/m 16,7 km/h (3 Bft)
16.08.2015 12:20 15,5 C 14,4 C 99 % 15 lf 1013,9 hPa 0,0 l/m 0 min 2 min 142 W/m 23,0 km/h (4 Bft)
16.08.2015 12:22 15,5 C 14,4 C 99 % 15 lf 1013,9 hPa 0,0 l/m 0 min 2 min 135 W/m 18,8 km/h (3 Bft)
16.08.2015 12:24 15,5 C 14,4 C 99 % 15 lf 1013,9 hPa 0,0 l/m 0 min 2 min 139 W/m 16,7 km/h (3 Bft)
16.08.2015 12:26 15,5 C 14,4 C 99 % 15 lf 1013,9 hPa 0,0 l/m 0 min 2 min 143 W/m 16,7 km/h (3 Bft)
16.08.2015 12:28 15,5 C 14,4 C 99 % 15 lf 1013,9 hPa 0,0 l/m 0 min 2 min 142 W/m 14,6 km/h (3 Bft)
16.08.2015 12:30 15,4 C 14,4 C 99 % 15 lf 1013,9 hPa 0,0 l/m 0 min 2 min 139 W/m 16,7 km/h (3 Bft)
16.08.2015 12:32 15,4 C 14,4 C 99 % 15 lf 1013,9 hPa 0,0 l/m 0 min 2 min 131 W/m 12,6 km/h (3 Bft)
16.08.2015 12:34 15,5 C 14,4 C 99 % 15 lf 1014,0 hPa 0,0 l/m 0 min 2 min 132 W/m 18,8 km/h (3 Bft)
16.08.2015 12:36 15,5 C 14,4 C 99 % 15 lf 1013,9 hPa 0,0 l/m 0 min 2 min 140 W/m 20,9 km/h (4 Bft)
16.08.2015 12:38 15,5 C 15,0 C 99 % 15 lf 1014,0 hPa 0,0 l/m 0 min 2 min 138 W/m 14,6 km/h (3 Bft)
16.08.2015 12:40 15,5 C 14,4 C 99 % 15 lf 1014,0 hPa 0,0 l/m 0 min 2 min 144 W/m 20,9 km/h (4 Bft)
16.08.2015 12:42 15,5 C 14,4 C 99 % 15 lf 1014,0 hPa 0,0 l/m 0 min 2 min 154 W/m 14,6 km/h (3 Bft)
16.08.2015 12:44 15,5 C 15,0 C 99 % 15 lf 1013,9 hPa 0,0 l/m 0 min 2 min 155 W/m 16,7 km/h (3 Bft)
16.08.2015 12:46 15,6 C 14,4 C 99 % 15 lf 1014,0 hPa 0,0 l/m 0 min 2 min 157 W/m 20,9 km/h (4 Bft)
16.08.2015 12:48 15,6 C 14,4 C 99 % 15 lf 1014,0 hPa 0,0 l/m 0 min 2 min 151 W/m 20,9 km/h (4 Bft)
16.08.2015 12:50 15,6 C 14,4 C 99 % 15 lf 1013,9 hPa 0,0 l/m 0 min 2 min 145 W/m 18,8 km/h (3 Bft)
16.08.2015 12:52 15,6 C 14,4 C 99 % 15 lf 1013,9 hPa 0,0 l/m 0 min 2 min 151 W/m 20,9 km/h (4 Bft)
16.08.2015 12:54 15,6 C 15,0 C 99 % 15 lf 1013,9 hPa 0,0 l/m 0 min 2 min 139 W/m 14,6 km/h (3 Bft)
16.08.2015 12:56 15,6 C 14,4 C 99 % 15 lf 1013,9 hPa 0,0 l/m 0 min 2 min 142 W/m 16,7 km/h (3 Bft)
16.08.2015 12:58 15,6 C 14,4 C 99 % 15 lf 1014,0 hPa 0,0 l/m 0 min 2 min 133 W/m 18,8 km/h (3 Bft)
16.08.2015 13:00 15,6 C 14,4 C 99 % 15 lf 1013,9 hPa 0,0 l/m 0 min 2 min 119 W/m 20,9 km/h (4 Bft)
16.08.2015 13:02 15,6 C 14,4 C 99 % 15 lf 1013,9 hPa 0,0 l/m 0 min 2 min 121 W/m 16,7 km/h (3 Bft)
16.08.2015 13:04 15,6 C 14,4 C 99 % 15 lf 1013,9 hPa 0,0 l/m 0 min 2 min 126 W/m 14,6 km/h (3 Bft)
16.08.2015 13:06 15,6 C 14,4 C 99 % 15 lf 1014,0 hPa 0,0 l/m 0 min 2 min 119 W/m 18,8 km/h (3 Bft)
16.08.2015 13:08 15,5 C 14,4 C 99 % 15 lf 1014,0 hPa 0,0 l/m 0 min 2 min 122 W/m 16,7 km/h (3 Bft)
16.08.2015 13:10 15,5 C 14,4 C 99 % 15 lf 1014,0 hPa 0,0 l/m 0 min 2 min 134 W/m 14,6 km/h (3 Bft)
16.08.2015 13:12 15,5 C 14,4 C 99 % 15 lf 1014,0 hPa 0,0 l/m 0 min 2 min 116 W/m 18,8 km/h (3 Bft)
16.08.2015 13:14 15,4 C 14,4 C 99 % 15 lf 1014,0 hPa 0,0 l/m 0 min 2 min 134 W/m 18,8 km/h (3 Bft)
16.08.2015 13:16 15,4 C 13,9 C 99 % 15 lf 1014,0 hPa 0,0 l/m 0 min 2 min 137 W/m 18,8 km/h (3 Bft)
16.08.2015 13:18 15,4 C 14,4 C 99 % 15 lf 1014,0 hPa 0,0 l/m 0 min 2 min 127 W/m 29,3 km/h (5 Bft)
16.08.2015 13:20 15,4 C 14,4 C 99 % 15 lf 1014,0 hPa 0,0 l/m 0 min 2 min 122 W/m 20,9 km/h (4 Bft)
16.08.2015 13:22 15,4 C 14,4 C 99 % 15 lf 1014,0 hPa 0,0 l/m 0 min 2 min 119 W/m 18,8 km/h (3 Bft)
16.08.2015 13:24 15,4 C 14,4 C 99 % 15 lf 1014,0 hPa 0,0 l/m 0 min 2 min 103 W/m 20,9 km/h (4 Bft)
16.08.2015 13:26 15,4 C 14,4 C 99 % 15 lf 1014,0 hPa 0,0 l/m 0 min 2 min 105 W/m 23,0 km/h (4 Bft)
16.08.2015 13:28 15,4 C 13,9 C 99 % 15 lf 1014,0 hPa 0,0 l/m 0 min 2 min 122 W/m 20,9 km/h (4 Bft)
16.08.2015 13:30 15,4 C 14,4 C 99 % 15 lf 1014,1 hPa 0,0 l/m 0 min 2 min 120 W/m 18,8 km/h (3 Bft)
16.08.2015 13:32 15,3 C 13,9 C 99 % 15 lf 1014,1 hPa 0,0 l/m 0 min 2 min 122 W/m 18,8 km/h (3 Bft)
16.08.2015 13:34 15,3 C 14,4 C 99 % 15 lf 1014,1 hPa 0,0 l/m 0 min 2 min 102 W/m 18,8 km/h (3 Bft)
16.08.2015 13:36 15,3 C 14,4 C 99 % 15 lf 1014,1 hPa 0,0 l/m 0 min 2 min 100 W/m 16,7 km/h (3 Bft)
16.08.2015 13:38 15,3 C 13,9 C 99 % 15 lf 1014,1 hPa 0,0 l/m 0 min 2 min 115 W/m 14,6 km/h (3 Bft)
16.08.2015 13:40 15,3 C 14,4 C 99 % 15 lf 1014,1 hPa 0,0 l/m 0 min 0 min 115 W/m 18,8 km/h (3 Bft)
16.08.2015 13:42 15,3 C 13,9 C 99 % 15 lf 1014,2 hPa 0,0 l/m 0 min 2 min 121 W/m 23,0 km/h (4 Bft)
16.08.2015 13:44 15,3 C 13,9 C 99 % 15 lf 1014,2 hPa 0,0 l/m 0 min 0 min 120 W/m 16,7 km/h (3 Bft)
16.08.2015 13:46 15,3 C 13,9 C 99 % 15 lf 1014,2 hPa 0,0 l/m 0 min 0 min 119 W/m 16,7 km/h (3 Bft)
16.08.2015 13:48 15,2 C 14,4 C 99 % 15 lf 1014,1 hPa 0,0 l/m 0 min 0 min 122 W/m 12,6 km/h (3 Bft)
16.08.2015 13:50 15,3 C 14,4 C 98 % 15 lf 1014,1 hPa 0,0 l/m 0 min 0 min 112 W/m 23,0 km/h (4 Bft)
16.08.2015 13:52 15,3 C 13,9 C 98 % 15 lf 1014,1 hPa 0,0 l/m 0 min 2 min 125 W/m 16,7 km/h (3 Bft)
16.08.2015 13:54 15,3 C 13,9 C 98 % 15 lf 1014,0 hPa 0,0 l/m 0 min 2 min 117 W/m 20,9 km/h (4 Bft)
16.08.2015 13:56 15,2 C 13,9 C 98 % 15 lf 1014,1 hPa 0,0 l/m 0 min 2 min 137 W/m 16,7 km/h (3 Bft)
16.08.2015 13:58 15,2 C 13,9 C 98 % 15 lf 1014,1 hPa 0,0 l/m 0 min 2 min 144 W/m 16,7 km/h (3 Bft)
16.08.2015 14:00 15,2 C 13,9 C 98 % 15 lf 1014,1 hPa 0,0 l/m 0 min 2 min 152 W/m 20,9 km/h (4 Bft)
16.08.2015 14:02 15,2 C 13,9 C 98 % 15 lf 1014,1 hPa 0,0 l/m 0 min 2 min 172 W/m 25,1 km/h (4 Bft)
16.08.2015 14:04 15,2 C 14,4 C 98 % 15 lf 1014,1 hPa 0,0 l/m 0 min 2 min 188 W/m 16,7 km/h (3 Bft)
16.08.2015 14:06 15,2 C 14,4 C 98 % 15 lf 1014,1 hPa 0,0 l/m 0 min 2 min 192 W/m 23,0 km/h (4 Bft)
16.08.2015 14:08 15,2 C 14,4 C 98 % 15 lf 1014,1 hPa 0,0 l/m 0 min 2 min 195 W/m 23,0 km/h (4 Bft)
16.08.2015 14:10 15,2 C 14,4 C 98 % 15 lf 1014,0 hPa 0,2 l/m 0 min 2 min 189 W/m 20,9 km/h (4 Bft)
16.08.2015 14:12 15,2 C 14,4 C 98 % 15 lf 1014,0 hPa 0,0 l/m 0 min 2 min 180 W/m 18,8 km/h (3 Bft)
16.08.2015 14:14 15,2 C 14,4 C 98 % 15 lf 1014,0 hPa 0,0 l/m 0 min 2 min 167 W/m 10,5 km/h (2 Bft)
16.08.2015 14:16 15,2 C 14,4 C 98 % 15 lf 1014,0 hPa 0,0 l/m 0 min 2 min 147 W/m 14,6 km/h (3 Bft)
16.08.2015 14:18 15,3 C 14,4 C 98 % 15 lf 1014,0 hPa 0,0 l/m 0 min 2 min 175 W/m 16,7 km/h (3 Bft)
16.08.2015 14:20 15,3 C 15,0 C 98 % 15 lf 1014,0 hPa 0,0 l/m 0 min 2 min 177 W/m 14,6 km/h (3 Bft)
16.08.2015 14:22 15,4 C 14,4 C 98 % 15 lf 1014,0 hPa 0,0 l/m 0 min 2 min 153 W/m 20,9 km/h (4 Bft)
16.08.2015 14:24 15,4 C 14,4 C 98 % 15 lf 1014,0 hPa 0,0 l/m 0 min 2 min 141 W/m 8,4 km/h (2 Bft)
16.08.2015 14:26 15,4 C 14,4 C 98 % 15 lf 1014,0 hPa 0,0 l/m 0 min 2 min 144 W/m 10,5 km/h (2 Bft)
16.08.2015 14:28 15,4 C 14,4 C 98 % 15 lf 1014,0 hPa 0,0 l/m 0 min 2 min 139 W/m 14,6 km/h (3 Bft)
16.08.2015 14:30 15,4 C 14,4 C 98 % 15 lf 1014,0 hPa 0,0 l/m 0 min 2 min 145 W/m 16,7 km/h (3 Bft)
16.08.2015 14:32 15,4 C 14,4 C 98 % 15 lf 1014,0 hPa 0,0 l/m 0 min 2 min 169 W/m 20,9 km/h (4 Bft)
16.08.2015 14:34 15,5 C 15,0 C 98 % 15 lf 1014,0 hPa 0,0 l/m 0 min 2 min 198 W/m 18,8 km/h (3 Bft)
16.08.2015 14:36 15,5 C 14,4 C 98 % 15 lf 1013,9 hPa 0,2 l/m 0 min 2 min 185 W/m 18,8 km/h (3 Bft)
16.08.2015 14:38 15,5 C 14,4 C 98 % 15 lf 1014,0 hPa 0,0 l/m 0 min 2 min 156 W/m 14,6 km/h (3 Bft)
16.08.2015 14:40 15,5 C 14,4 C 98 % 15 lf 1014,0 hPa 0,0 l/m 0 min 2 min 128 W/m 12,6 km/h (3 Bft)
16.08.2015 14:42 15,5 C 14,4 C 98 % 15 lf 1014,0 hPa 0,0 l/m 0 min 2 min 140 W/m 16,7 km/h (3 Bft)
16.08.2015 14:44 15,6 C 15,0 C 98 % 15 lf 1014,0 hPa 0,0 l/m 0 min 2 min 40 W/m 16,7 km/h (3 Bft)
16.08.2015 14:46 15,6 C 14,4 C 98 % 15 lf 1014,0 hPa 0,0 l/m 0 min 2 min 151 W/m 27,2 km/h (4 Bft)
16.08.2015 14:48 15,6 C 14,4 C 98 % 15 lf 1014,0 hPa 0,0 l/m 0 min 2 min 166 W/m 23,0 km/h (4 Bft)
16.08.2015 14:50 15,6 C 14,4 C 98 % 15 lf 1014,0 hPa 0,0 l/m 0 min 2 min 178 W/m 18,8 km/h (3 Bft)
16.08.2015 14:52 15,6 C 14,4 C 98 % 15 lf 1014,0 hPa 0,0 l/m 0 min 2 min 196 W/m 23,0 km/h (4 Bft)
16.08.2015 14:54 15,7 C 14,4 C 98 % 15 lf 1014,0 hPa 0,0 l/m 0 min 2 min 200 W/m 23,0 km/h (4 Bft)
16.08.2015 14:56 15,6 C 14,4 C 98 % 15 lf 1014,0 hPa 0,0 l/m 0 min 2 min 204 W/m 25,1 km/h (4 Bft)
16.08.2015 14:58 15,6 C 14,4 C 98 % 15 lf 1014,0 hPa 0,0 l/m 0 min 2 min 176 W/m 14,6 km/h (3 Bft)
16.08.2015 15:00 15,6 C 15,0 C 98 % 15 lf 1014,0 hPa 0,0 l/m 0 min 2 min 161 W/m 12,6 km/h (3 Bft)
16.08.2015 15:02 15,6 C 14,4 C 98 % 15 lf 1014,0 hPa 0,0 l/m 0 min 2 min 171 W/m 14,6 km/h (3 Bft)
16.08.2015 15:04 15,6 C 14,4 C 98 % 15 lf 1014,0 hPa 0,0 l/m 0 min 2 min 152 W/m 20,9 km/h (4 Bft)
16.08.2015 15:06 15,6 C 14,4 C 98 % 15 lf 1014,0 hPa 0,0 l/m 0 min 2 min 152 W/m 27,2 km/h (4 Bft)
16.08.2015 15:08 15,6 C 14,4 C 98 % 15 lf 1014,0 hPa 0,0 l/m 0 min 2 min 149 W/m 20,9 km/h (4 Bft)
16.08.2015 15:10 15,6 C 14,4 C 98 % 15 lf 1014,0 hPa 0,0 l/m 0 min 2 min 150 W/m 18,8 km/h (3 Bft)
16.08.2015 15:12 15,6 C 14,4 C 98 % 15 lf 1014,0 hPa 0,2 l/m 0 min 2 min 128 W/m 25,1 km/h (4 Bft)
16.08.2015 15:14 15,6 C 14,4 C 98 % 15 lf 1014,0 hPa 0,0 l/m 0 min 2 min 130 W/m 20,9 km/h (4 Bft)
16.08.2015 15:16 15,6 C 14,4 C 98 % 15 lf 1014,0 hPa 0,0 l/m 0 min 2 min 139 W/m 20,9 km/h (4 Bft)
16.08.2015 15:18 15,6 C 14,4 C 98 % 15 lf 1014,0 hPa 0,0 l/m 0 min 2 min 143 W/m 20,9 km/h (4 Bft)
16.08.2015 15:20 15,6 C 14,4 C 98 % 15 lf 1014,0 hPa 0,0 l/m 0 min 2 min 156 W/m 20,9 km/h (4 Bft)
16.08.2015 15:22 15,6 C 14,4 C 98 % 15 lf 1014,0 hPa 0,0 l/m 0 min 2 min 160 W/m 33,5 km/h (5 Bft)
16.08.2015 15:24 15,5 C 13,9 C 98 % 15 lf 1014,1 hPa 0,0 l/m 0 min 2 min 154 W/m 29,3 km/h (5 Bft)
16.08.2015 15:26 15,4 C 13,9 C 98 % 15 lf 1014,0 hPa 0,0 l/m 0 min 2 min 148 W/m 16,7 km/h (3 Bft)
16.08.2015 15:28 15,4 C 14,4 C 98 % 15 lf 1014,0 hPa 0,2 l/m 0 min 2 min 146 W/m 16,7 km/h (3 Bft)
16.08.2015 15:30 15,4 C 14,4 C 98 % 15 lf 1013,9 hPa 0,0 l/m 0 min 2 min 145 W/m 14,6 km/h (3 Bft)
16.08.2015 15:32 15,5 C 14,4 C 98 % 15 lf 1013,9 hPa 0,0 l/m 0 min 2 min 142 W/m 20,9 km/h (4 Bft)
16.08.2015 15:34 15,5 C 14,4 C 98 % 15 lf 1013,9 hPa 0,0 l/m 0 min 2 min 127 W/m 14,6 km/h (3 Bft)
16.08.2015 15:36 15,5 C 14,4 C 98 % 15 lf 1013,9 hPa 0,0 l/m 0 min 2 min 124 W/m 14,6 km/h (3 Bft)
16.08.2015 15:38 15,5 C 14,4 C 98 % 15 lf 1014,0 hPa 0,0 l/m 0 min 2 min 119 W/m 16,7 km/h (3 Bft)
16.08.2015 15:40 15,5 C 14,4 C 98 % 15 lf 1013,9 hPa 0,0 l/m 0 min 2 min 119 W/m 33,5 km/h (5 Bft)
16.08.2015 15:42 15,5 C 14,4 C 98 % 15 lf 1013,9 hPa 0,0 l/m 0 min 2 min 144 W/m 23,0 km/h (4 Bft)
16.08.2015 15:44 15,5 C 14,4 C 98 % 15 lf 1013,9 hPa 0,0 l/m 0 min 2 min 139 W/m 18,8 km/h (3 Bft)
16.08.2015 15:46 15,5 C 14,4 C 98 % 15 lf 1013,9 hPa 0,0 l/m 0 min 2 min 138 W/m 10,5 km/h (2 Bft)
16.08.2015 15:48 15,5 C 14,4 C 98 % 15 lf 1013,9 hPa 0,0 l/m 0 min 2 min 137 W/m 20,9 km/h (4 Bft)
16.08.2015 15:50 15,5 C 14,4 C 98 % 15 lf 1013,9 hPa 0,2 l/m 0 min 2 min 135 W/m 23,0 km/h (4 Bft)
16.08.2015 15:52 15,5 C 14,4 C 98 % 15 lf 1013,9 hPa 0,0 l/m 0 min 2 min 117 W/m 16,7 km/h (3 Bft)
16.08.2015 15:54 15,5 C 14,4 C 98 % 15 lf 1013,8 hPa 0,0 l/m 0 min 2 min 120 W/m 16,7 km/h (3 Bft)
16.08.2015 15:56 15,5 C 14,4 C 98 % 15 lf 1013,9 hPa 0,0 l/m 0 min 2 min 125 W/m 12,6 km/h (3 Bft)
16.08.2015 15:58 15,5 C 14,4 C 98 % 15 lf 1013,9 hPa 0,0 l/m 0 min 2 min 113 W/m 18,8 km/h (3 Bft)
16.08.2015 16:00 15,6 C 14,4 C 98 % 15 lf 1013,9 hPa 0,0 l/m 0 min 2 min 118 W/m 14,6 km/h (3 Bft)
16.08.2015 16:02 15,6 C 14,4 C 98 % 15 lf 1013,8 hPa 0,0 l/m 0 min 2 min 123 W/m 18,8 km/h (3 Bft)
16.08.2015 16:04 15,6 C 14,4 C 98 % 15 lf 1013,8 hPa 0,0 l/m 0 min 2 min 117 W/m 16,7 km/h (3 Bft)
16.08.2015 16:06 15,6 C 14,4 C 98 % 15 lf 1013,9 hPa 0,0 l/m 0 min 2 min 104 W/m 14,6 km/h (3 Bft)
16.08.2015 16:08 15,6 C 14,4 C 98 % 15 lf 1013,9 hPa 0,2 l/m 0 min 2 min 104 W/m 16,7 km/h (3 Bft)
16.08.2015 16:10 15,6 C 14,4 C 98 % 15 lf 1013,9 hPa 0,0 l/m 0 min 2 min 102 W/m 14,6 km/h (3 Bft)
16.08.2015 16:12 15,6 C 14,4 C 98 % 15 lf 1013,8 hPa 0,0 l/m 0 min 2 min 108 W/m 12,6 km/h (3 Bft)
16.08.2015 16:14 15,6 C 14,4 C 98 % 15 lf 1013,7 hPa 0,0 l/m 0 min 2 min 100 W/m 14,6 km/h (3 Bft)
16.08.2015 16:16 15,6 C 14,4 C 98 % 15 lf 1013,8 hPa 0,0 l/m 0 min 2 min 104 W/m 18,8 km/h (3 Bft)
16.08.2015 16:18 15,6 C 14,4 C 98 % 15 lf 1013,8 hPa 0,0 l/m 0 min 2 min 96 W/m 16,7 km/h (3 Bft)
16.08.2015 16:20 15,6 C 14,4 C 98 % 15 lf 1013,8 hPa 0,0 l/m 0 min 2 min 92 W/m 16,7 km/h (3 Bft)
16.08.2015 16:22 15,6 C 14,4 C 98 % 15 lf 1013,9 hPa 0,2 l/m 0 min 2 min 83 W/m 14,6 km/h (3 Bft)
16.08.2015 16:24 15,6 C 14,4 C 98 % 15 lf 1013,8 hPa 0,0 l/m 0 min 2 min 85 W/m 14,6 km/h (3 Bft)
16.08.2015 16:26 15,6 C 14,4 C 98 % 15 lf 1013,9 hPa 0,0 l/m 0 min 2 min 82 W/m 12,6 km/h (3 Bft)
16.08.2015 16:28 15,6 C 14,4 C 98 % 15 lf 1013,8 hPa 0,0 l/m 0 min 2 min 70 W/m 20,9 km/h (4 Bft)
16.08.2015 16:30 15,6 C 14,4 C 98 % 15 lf 1013,9 hPa 0,0 l/m 0 min 2 min 79 W/m 23,0 km/h (4 Bft)
16.08.2015 16:32 15,5 C 13,9 C 98 % 15 lf 1013,8 hPa 0,0 l/m 0 min 2 min 79 W/m 18,8 km/h (3 Bft)
16.08.2015 16:34 15,5 C 14,4 C 97 % 15 lf 1013,8 hPa 0,0 l/m 0 min 2 min 77 W/m 16,7 km/h (3 Bft)
16.08.2015 16:36 15,5 C 13,9 C 97 % 15 lf 1013,9 hPa 0,0 l/m 0 min 2 min 92 W/m 16,7 km/h (3 Bft)
16.08.2015 16:38 15,4 C 14,4 C 97 % 15 lf 1013,9 hPa 0,0 l/m 0 min 2 min 100 W/m 12,6 km/h (3 Bft)
16.08.2015 16:40 15,4 C 13,9 C 97 % 15 lf 1013,9 hPa 0,2 l/m 0 min 2 min 87 W/m 20,9 km/h (4 Bft)
16.08.2015 16:42 15,4 C 14,4 C 97 % 15 lf 1013,9 hPa 0,0 l/m 0 min 2 min 68 W/m 12,6 km/h (3 Bft)
16.08.2015 16:44 15,4 C 14,4 C 97 % 15 lf 1013,8 hPa 0,0 l/m 0 min 2 min 66 W/m 14,6 km/h (3 Bft)
16.08.2015 16:46 15,4 C 13,9 C 97 % 15 lf 1013,9 hPa 0,0 l/m 0 min 2 min 62 W/m 12,6 km/h (3 Bft)
16.08.2015 16:48 15,4 C 13,9 C 97 % 15 lf 1013,9 hPa 0,0 l/m 0 min 2 min 68 W/m 16,7 km/h (3 Bft)
16.08.2015 16:50 15,3 C 13,9 C 97 % 15 lf 1013,9 hPa 0,0 l/m 0 min 2 min 68 W/m 18,8 km/h (3 Bft)
16.08.2015 16:52 15,3 C 13,9 C 97 % 15 lf 1013,9 hPa 0,0 l/m 0 min 2 min 66 W/m 16,7 km/h (3 Bft)
16.08.2015 16:54 15,3 C 13,9 C 97 % 15 lf 1013,9 hPa 0,0 l/m 0 min 2 min 63 W/m 16,7 km/h (3 Bft)
16.08.2015 16:56 15,3 C 13,9 C 97 % 15 lf 1013,9 hPa 0,0 l/m 0 min 2 min 72 W/m 20,9 km/h (4 Bft)
16.08.2015 16:58 15,3 C 13,9 C 97 % 15 lf 1013,9 hPa 0,2 l/m 0 min 2 min 77 W/m 18,8 km/h (3 Bft)
16.08.2015 17:00 15,3 C 13,9 C 97 % 15 lf 1013,8 hPa 0,0 l/m 0 min 2 min 72 W/m 16,7 km/h (3 Bft)
16.08.2015 17:02 15,2 C 13,9 C 97 % 15 lf 1013,9 hPa 0,0 l/m 0 min 2 min 70 W/m 10,5 km/h (2 Bft)
16.08.2015 17:04 15,3 C 13,9 C 97 % 15 lf 1013,8 hPa 0,0 l/m 0 min 2 min 73 W/m 12,6 km/h (3 Bft)
16.08.2015 17:06 15,3 C 14,4 C 97 % 15 lf 1013,8 hPa 0,0 l/m 0 min 2 min 79 W/m 12,6 km/h (3 Bft)
16.08.2015 17:08 15,3 C 14,4 C 97 % 15 lf 1013,8 hPa 0,0 l/m 0 min 2 min 85 W/m 10,5 km/h (2 Bft)
16.08.2015 17:10 15,3 C 14,4 C 98 % 15 lf 1013,9 hPa 0,0 l/m 0 min 2 min 81 W/m 16,7 km/h (3 Bft)
16.08.2015 17:12 15,3 C 14,4 C 98 % 15 lf 1013,8 hPa 0,0 l/m 0 min 2 min 81 W/m 14,6 km/h (3 Bft)
16.08.2015 17:14 15,3 C 14,4 C 97 % 15 lf 1013,8 hPa 0,2 l/m 0 min 2 min 72 W/m 18,8 km/h (3 Bft)
16.08.2015 17:16 15,3 C 13,9 C 98 % 15 lf 1013,7 hPa 0,0 l/m 0 min 2 min 68 W/m 16,7 km/h (3 Bft)
16.08.2015 17:18 15,3 C 13,9 C 98 % 15 lf 1013,8 hPa 0,0 l/m 0 min 2 min 62 W/m 18,8 km/h (3 Bft)
16.08.2015 17:20 15,3 C 13,9 C 98 % 15 lf 1013,8 hPa 0,0 l/m 0 min 2 min 61 W/m 12,6 km/h (3 Bft)
16.08.2015 17:22 15,3 C 14,4 C 98 % 15 lf 1013,8 hPa 0,0 l/m 0 min 2 min 65 W/m 12,6 km/h (3 Bft)
16.08.2015 17:24 15,3 C 14,4 C 98 % 15 lf 1013,8 hPa 0,0 l/m 0 min 2 min 71 W/m 14,6 km/h (3 Bft)
16.08.2015 17:26 15,3 C 13,9 C 98 % 15 lf 1013,7 hPa 0,0 l/m 0 min 2 min 68 W/m 12,6 km/h (3 Bft)
16.08.2015 17:28 15,3 C 14,4 C 98 % 15 lf 1013,7 hPa 0,0 l/m 0 min 2 min 61 W/m 12,6 km/h (3 Bft)
16.08.2015 17:30 15,3 C 14,4 C 98 % 15 lf 1013,8 hPa 0,2 l/m 0 min 2 min 56 W/m 10,5 km/h (2 Bft)
16.08.2015 17:32 15,3 C 13,9 C 98 % 15 lf 1013,8 hPa 0,0 l/m 0 min 2 min 55 W/m 20,9 km/h (4 Bft)
16.08.2015 17:34 15,3 C 13,9 C 98 % 15 lf 1013,8 hPa 0,0 l/m 0 min 2 min 52 W/m 18,8 km/h (3 Bft)
16.08.2015 17:36 15,3 C 13,9 C 98 % 15 lf 1013,8 hPa 0,0 l/m 0 min 2 min 53 W/m 18,8 km/h (3 Bft)
16.08.2015 17:38 15,3 C 13,9 C 98 % 15 lf 1013,7 hPa 0,0 l/m 0 min 2 min 47 W/m 12,6 km/h (3 Bft)
16.08.2015 17:40 15,3 C 13,9 C 98 % 15 lf 1013,8 hPa 0,0 l/m 0 min 2 min 48 W/m 10,5 km/h (2 Bft)
16.08.2015 17:42 15,3 C 13,9 C 98 % 15 lf 1013,7 hPa 0,0 l/m 0 min 2 min 49 W/m 16,7 km/h (3 Bft)
16.08.2015 17:44 15,3 C 13,9 C 98 % 15 lf 1013,7 hPa 0,2 l/m 0 min 2 min 55 W/m 14,6 km/h (3 Bft)
16.08.2015 17:46 15,3 C 13,9 C 98 % 15 lf 1013,7 hPa 0,0 l/m 0 min 2 min 52 W/m 16,7 km/h (3 Bft)
16.08.2015 17:48 15,3 C 13,9 C 98 % 15 lf 1013,7 hPa 0,0 l/m 0 min 2 min 49 W/m 16,7 km/h (3 Bft)
16.08.2015 17:50 15,2 C 13,9 C 98 % 15 lf 1013,7 hPa 0,0 l/m 0 min 2 min 52 W/m 16,7 km/h (3 Bft)
16.08.2015 17:52 15,2 C 13,9 C 98 % 15 lf 1013,7 hPa 0,0 l/m 0 min 2 min 51 W/m 14,6 km/h (3 Bft)
16.08.2015 17:54 15,2 C 13,9 C 98 % 15 lf 1013,7 hPa 0,0 l/m 0 min 2 min 56 W/m 18,8 km/h (3 Bft)
16.08.2015 17:56 15,2 C 13,9 C 98 % 15 lf 1013,7 hPa 0,2 l/m 0 min 2 min 46 W/m 20,9 km/h (4 Bft)
16.08.2015 17:58 15,1 C 13,9 C 97 % 15 lf 1013,7 hPa 0,0 l/m 0 min 2 min 42 W/m 25,1 km/h (4 Bft)
16.08.2015 18:00 15,1 C 13,9 C 97 % 15 lf 1013,7 hPa 0,0 l/m 0 min 2 min 44 W/m 16,7 km/h (3 Bft)
16.08.2015 18:02 15,1 C 13,9 C 97 % 15 lf 1013,7 hPa 0,0 l/m 0 min 2 min 52 W/m 12,6 km/h (3 Bft)
16.08.2015 18:05 15,1 C 13,9 C 97 % 15 lf 1013,7 hPa 0,0 l/m 0 min 2 min 58 W/m 20,9 km/h (4 Bft)
16.08.2015 18:08 15,1 C 13,9 C 97 % 15 lf 1013,7 hPa 0,0 l/m 0 min 2 min 60 W/m 20,9 km/h (4 Bft)
16.08.2015 18:10 15,1 C 13,9 C 98 % 15 lf 1013,7 hPa 0,2 l/m 0 min 2 min 50 W/m 18,8 km/h (3 Bft)
16.08.2015 18:12 15,1 C 13,9 C 98 % 15 lf 1013,7 hPa 0,0 l/m 0 min 2 min 45 W/m 23,0 km/h (4 Bft)
16.08.2015 18:14 15,0 C 13,9 C 98 % 15 lf 1013,7 hPa 0,0 l/m 0 min 2 min 46 W/m 16,7 km/h (3 Bft)
16.08.2015 18:16 15,0 C 13,9 C 98 % 15 lf 1013,7 hPa 0,0 l/m 0 min 2 min 40 W/m 14,6 km/h (3 Bft)
16.08.2015 18:18 14,9 C 13,9 C 98 % 15 lf 1013,7 hPa 0,0 l/m 0 min 2 min 39 W/m 27,2 km/h (4 Bft)
16.08.2015 18:20 14,9 C 13,9 C 98 % 15 lf 1013,7 hPa 0,0 l/m 0 min 2 min 38 W/m 16,7 km/h (3 Bft)
16.08.2015 18:22 14,9 C 13,9 C 98 % 15 lf 1013,8 hPa 0,0 l/m 0 min 2 min 38 W/m 25,1 km/h (4 Bft)
16.08.2015 18:24 14,9 C 13,9 C 98 % 15 lf 1013,7 hPa 0,0 l/m 0 min 2 min 37 W/m 18,8 km/h (3 Bft)
16.08.2015 18:26 14,8 C 13,9 C 98 % 15 lf 1013,7 hPa 0,2 l/m 0 min 2 min 36 W/m 16,7 km/h (3 Bft)
16.08.2015 18:28 14,8 C 13,3 C 98 % 15 lf 1013,7 hPa 0,0 l/m 0 min 2 min 33 W/m 23,0 km/h (4 Bft)
16.08.2015 18:30 14,8 C 13,9 C 98 % 15 lf 1013,7 hPa 0,0 l/m 0 min 2 min 34 W/m 16,7 km/h (3 Bft)
16.08.2015 18:32 14,8 C 13,3 C 97 % 15 lf 1013,7 hPa 0,0 l/m 0 min 2 min 31 W/m 18,8 km/h (3 Bft)
16.08.2015 18:34 14,8 C 13,9 C 97 % 15 lf 1013,7 hPa 0,0 l/m 0 min 2 min 33 W/m 18,8 km/h (3 Bft)
16.08.2015 18:36 14,7 C 13,9 C 97 % 15 lf 1013,7 hPa 0,2 l/m 0 min 2 min 32 W/m 18,8 km/h (3 Bft)
16.08.2015 18:38 14,7 C 13,3 C 97 % 15 lf 1013,7 hPa 0,0 l/m 0 min 2 min 31 W/m 18,8 km/h (3 Bft)
16.08.2015 18:40 14,7 C 13,3 C 98 % 15 lf 1013,7 hPa 0,0 l/m 0 min 2 min 29 W/m 16,7 km/h (3 Bft)
16.08.2015 18:42 14,7 C 13,3 C 98 % 15 lf 1013,7 hPa 0,0 l/m 0 min 2 min 30 W/m 20,9 km/h (4 Bft)
16.08.2015 18:44 14,7 C 13,3 C 98 % 15 lf 1013,7 hPa 0,2 l/m 0 min 2 min 31 W/m 20,9 km/h (4 Bft)
16.08.2015 18:46 14,7 C 13,3 C 98 % 15 lf 1013,7 hPa 0,0 l/m 0 min 2 min 29 W/m 20,9 km/h (4 Bft)
16.08.2015 18:48 14,7 C 13,3 C 98 % 15 lf 1013,7 hPa 0,0 l/m 0 min 2 min 26 W/m 25,1 km/h (4 Bft)
16.08.2015 18:50 14,7 C 13,3 C 98 % 15 lf 1013,7 hPa 0,0 l/m 0 min 2 min 25 W/m 16,7 km/h (3 Bft)
16.08.2015 18:52 14,7 C 13,3 C 98 % 15 lf 1013,6 hPa 0,0 l/m 0 min 2 min 23 W/m 16,7 km/h (3 Bft)
16.08.2015 18:54 14,7 C 13,3 C 98 % 15 lf 1013,7 hPa 0,2 l/m 0 min 2 min 21 W/m 14,6 km/h (3 Bft)
16.08.2015 18:56 14,6 C 13,3 C 98 % 15 lf 1013,7 hPa 0,0 l/m 0 min 2 min 21 W/m 16,7 km/h (3 Bft)
16.08.2015 18:58 14,6 C 13,3 C 98 % 15 lf 1013,7 hPa 0,0 l/m 0 min 2 min 19 W/m 23,0 km/h (4 Bft)
16.08.2015 19:00 14,6 C 13,3 C 98 % 15 lf 1013,7 hPa 0,0 l/m 0 min 2 min 19 W/m 14,6 km/h (3 Bft)
16.08.2015 19:02 14,6 C 13,3 C 98 % 15 lf 1013,7 hPa 0,2 l/m 0 min 2 min 19 W/m 18,8 km/h (3 Bft)
16.08.2015 19:04 14,6 C 13,3 C 98 % 15 lf 1013,7 hPa 0,0 l/m 0 min 2 min 18 W/m 20,9 km/h (4 Bft)
16.08.2015 19:06 14,6 C 13,3 C 98 % 15 lf 1013,7 hPa 0,0 l/m 0 min 2 min 17 W/m 20,9 km/h (4 Bft)
16.08.2015 19:08 14,6 C 13,3 C 98 % 15 lf 1013,6 hPa 0,2 l/m 0 min 2 min 17 W/m 20,9 km/h (4 Bft)
16.08.2015 19:10 14,6 C 13,3 C 98 % 15 lf 1013,7 hPa 0,0 l/m 0 min 2 min 14 W/m 14,6 km/h (3 Bft)
16.08.2015 19:12 14,6 C 13,3 C 98 % 15 lf 1013,7 hPa 0,0 l/m 0 min 2 min 15 W/m 14,6 km/h (3 Bft)
16.08.2015 19:14 14,6 C 13,3 C 98 % 15 lf 1013,7 hPa 0,2 l/m 0 min 2 min 14 W/m 14,6 km/h (3 Bft)
16.08.2015 19:16 14,6 C 13,3 C 98 % 15 lf 1013,6 hPa 0,0 l/m 0 min 2 min 13 W/m 20,9 km/h (4 Bft)
16.08.2015 19:18 14,6 C 13,3 C 98 % 15 lf 1013,7 hPa 0,0 l/m 0 min 2 min 12 W/m 16,7 km/h (3 Bft)
16.08.2015 19:20 14,6 C 13,3 C 98 % 15 lf 1013,6 hPa 0,2 l/m 0 min 2 min 13 W/m 16,7 km/h (3 Bft)
16.08.2015 19:22 14,6 C 13,3 C 98 % 15 lf 1013,6 hPa 0,0 l/m 0 min 2 min 13 W/m 16,7 km/h (3 Bft)
16.08.2015 19:24 14,6 C 13,3 C 98 % 15 lf 1013,7 hPa 0,0 l/m 0 min 2 min 14 W/m 14,6 km/h (3 Bft)
16.08.2015 19:26 14,6 C 13,3 C 98 % 15 lf 1013,7 hPa 0,2 l/m 0 min 2 min 12 W/m 16,7 km/h (3 Bft)
16.08.2015 19:28 14,6 C 13,3 C 98 % 15 lf 1013,7 hPa 0,0 l/m 0 min 2 min 12 W/m 18,8 km/h (3 Bft)
16.08.2015 19:30 14,6 C 13,3 C 98 % 15 lf 1013,7 hPa 0,0 l/m 0 min 2 min 12 W/m 16,7 km/h (3 Bft)
16.08.2015 19:32 14,6 C 13,3 C 98 % 15 lf 1013,7 hPa 0,2 l/m 0 min 2 min 12 W/m 14,6 km/h (3 Bft)
16.08.2015 19:34 14,6 C 13,3 C 98 % 15 lf 1013,7 hPa 0,0 l/m 0 min 2 min 11 W/m 12,6 km/h (3 Bft)
16.08.2015 19:36 14,5 C 13,3 C 98 % 15 lf 1013,7 hPa 0,0 l/m 0 min 2 min 12 W/m 14,6 km/h (3 Bft)
16.08.2015 19:38 14,6 C 13,3 C 98 % 15 lf 1013,7 hPa 0,2 l/m 0 min 2 min 12 W/m 14,6 km/h (3 Bft)
16.08.2015 19:40 14,5 C 13,3 C 98 % 15 lf 1013,7 hPa 0,0 l/m 0 min 2 min 12 W/m 18,8 km/h (3 Bft)
16.08.2015 19:42 14,6 C 13,3 C 98 % 15 lf 1013,7 hPa 0,0 l/m 0 min 2 min 12 W/m 25,1 km/h (4 Bft)
16.08.2015 19:44 14,5 C 13,3 C 98 % 15 lf 1013,7 hPa 0,2 l/m 0 min 2 min 11 W/m 20,9 km/h (4 Bft)
16.08.2015 19:46 14,5 C 13,3 C 98 % 15 lf 1013,7 hPa 0,0 l/m 0 min 2 min 11 W/m 27,2 km/h (4 Bft)
16.08.2015 19:48 14,5 C 13,3 C 98 % 15 lf 1013,7 hPa 0,0 l/m 0 min 2 min 11 W/m 20,9 km/h (4 Bft)
16.08.2015 19:50 14,4 C 13,3 C 98 % 15 lf 1013,6 hPa 0,2 l/m 0 min 2 min 11 W/m 14,6 km/h (3 Bft)
16.08.2015 19:52 14,4 C 13,3 C 98 % 15 lf 1013,6 hPa 0,0 l/m 0 min 2 min 11 W/m 18,8 km/h (3 Bft)
16.08.2015 19:54 14,4 C 13,3 C 98 % 15 lf 1013,7 hPa 0,0 l/m 0 min 2 min 10 W/m 16,7 km/h (3 Bft)
16.08.2015 19:56 14,4 C 13,3 C 98 % 15 lf 1013,7 hPa 0,0 l/m 0 min 2 min 9 W/m 18,8 km/h (3 Bft)
16.08.2015 19:58 14,4 C 13,3 C 98 % 15 lf 1013,7 hPa 0,2 l/m 0 min 2 min 9 W/m 16,7 km/h (3 Bft)
16.08.2015 20:00 14,4 C 13,3 C 98 % 15 lf 1013,7 hPa 0,0 l/m 0 min 2 min 9 W/m 23,0 km/h (4 Bft)
16.08.2015 20:02 14,4 C 13,3 C 98 % 15 lf 1013,7 hPa 0,0 l/m 0 min 2 min 9 W/m 16,7 km/h (3 Bft)
16.08.2015 20:04 14,4 C 13,3 C 98 % 15 lf 1013,7 hPa 0,0 l/m 0 min 2 min 9 W/m 16,7 km/h (3 Bft)
16.08.2015 20:06 14,4 C 13,3 C 98 % 15 lf 1013,7 hPa 0,0 l/m 0 min 2 min 9 W/m 16,7 km/h (3 Bft)
16.08.2015 20:08 14,4 C 13,3 C 98 % 15 lf 1013,8 hPa 0,2 l/m 0 min 2 min 7 W/m 18,8 km/h (3 Bft)
16.08.2015 20:10 14,4 C 13,3 C 98 % 15 lf 1013,8 hPa 0,0 l/m 0 min 2 min 7 W/m 16,7 km/h (3 Bft)
16.08.2015 20:12 14,4 C 13,3 C 98 % 15 lf 1013,9 hPa 0,0 l/m 0 min 2 min 5 W/m 25,1 km/h (4 Bft)
16.08.2015 20:14 14,4 C 13,3 C 98 % 15 lf 1013,8 hPa 0,2 l/m 0 min 2 min 5 W/m 18,8 km/h (3 Bft)
16.08.2015 20:16 14,3 C 13,3 C 98 % 15 lf 1013,9 hPa 0,0 l/m 0 min 2 min 5 W/m 23,0 km/h (4 Bft)
16.08.2015 20:18 14,3 C 13,3 C 98 % 15 lf 1013,9 hPa 0,0 l/m 0 min 2 min 5 W/m 20,9 km/h (4 Bft)
16.08.2015 20:20 14,3 C 13,3 C 98 % 15 lf 1013,9 hPa 0,0 l/m 0 min 2 min 5 W/m 14,6 km/h (3 Bft)
16.08.2015 20:22 14,3 C 13,3 C 98 % 15 lf 1014,0 hPa 0,2 l/m 0 min 2 min 5 W/m 18,8 km/h (3 Bft)
16.08.2015 20:24 14,3 C 13,3 C 98 % 15 lf 1014,0 hPa 0,0 l/m 0 min 2 min 5 W/m 16,7 km/h (3 Bft)
16.08.2015 20:26 14,3 C 13,3 C 98 % 15 lf 1013,9 hPa 0,0 l/m 0 min 2 min 5 W/m 16,7 km/h (3 Bft)
16.08.2015 20:28 14,3 C 13,3 C 98 % 15 lf 1013,9 hPa 0,2 l/m 0 min 2 min 5 W/m 14,6 km/h (3 Bft)
16.08.2015 20:30 14,3 C 13,3 C 98 % 15 lf 1014,0 hPa 0,0 l/m 0 min 2 min 5 W/m 16,7 km/h (3 Bft)
16.08.2015 20:32 14,3 C 13,3 C 98 % 15 lf 1014,0 hPa 0,0 l/m 0 min 2 min 3 W/m 16,7 km/h (3 Bft)
16.08.2015 20:34 14,3 C 13,3 C 98 % 15 lf 1014,0 hPa 0,2 l/m 0 min 2 min 5 W/m 12,6 km/h (3 Bft)
16.08.2015 20:36 14,3 C 13,3 C 98 % 15 lf 1014,0 hPa 0,0 l/m 0 min 2 min 3 W/m 16,7 km/h (3 Bft)
16.08.2015 20:38 14,3 C 13,3 C 98 % 15 lf 1014,0 hPa 0,0 l/m 0 min 2 min 0 W/m 12,6 km/h (3 Bft)
16.08.2015 20:40 14,3 C 13,3 C 98 % 15 lf 1014,0 hPa 0,2 l/m 0 min 2 min 0 W/m 18,8 km/h (3 Bft)
16.08.2015 20:42 14,3 C 13,3 C 98 % 15 lf 1014,0 hPa 0,0 l/m 0 min 2 min 0 W/m 18,8 km/h (3 Bft)
16.08.2015 20:44 14,3 C 13,3 C 98 % 15 lf 1014,0 hPa 0,0 l/m 0 min 2 min 0 W/m 23,0 km/h (4 Bft)
16.08.2015 20:46 14,3 C 13,3 C 98 % 15 lf 1014,1 hPa 0,0 l/m 0 min 2 min 0 W/m 16,7 km/h (3 Bft)
16.08.2015 20:48 14,3 C 13,3 C 98 % 15 lf 1014,1 hPa 0,0 l/m 0 min 2 min 0 W/m 18,8 km/h (3 Bft)
16.08.2015 20:50 14,3 C 13,3 C 98 % 15 lf 1014,1 hPa 0,0 l/m 0 min 2 min 0 W/m 12,6 km/h (3 Bft)
16.08.2015 20:52 14,3 C 13,3 C 98 % 15 lf 1014,1 hPa 0,0 l/m 0 min 2 min 0 W/m 16,7 km/h (3 Bft)
16.08.2015 20:54 14,3 C 13,3 C 98 % 15 lf 1014,1 hPa 0,2 l/m 0 min 2 min 0 W/m 14,6 km/h (3 Bft)
16.08.2015 20:56 14,3 C 13,3 C 98 % 15 lf 1014,1 hPa 0,0 l/m 0 min 2 min 0 W/m 20,9 km/h (4 Bft)
16.08.2015 20:58 14,3 C 13,3 C 98 % 15 lf 1014,1 hPa 0,0 l/m 0 min 2 min 0 W/m 25,1 km/h (4 Bft)
16.08.2015 21:00 14,2 C 13,3 C 98 % 15 lf 1014,1 hPa 0,0 l/m 0 min 2 min 0 W/m 18,8 km/h (3 Bft)
16.08.2015 21:02 14,2 C 13,3 C 98 % 15 lf 1014,1 hPa 0,0 l/m 0 min 2 min 0 W/m 16,7 km/h (3 Bft)
16.08.2015 21:04 14,2 C 13,3 C 98 % 15 lf 1014,1 hPa 0,0 l/m 0 min 2 min 0 W/m 20,9 km/h (4 Bft)
16.08.2015 21:06 14,2 C 13,3 C 98 % 15 lf 1014,1 hPa 0,0 l/m 0 min 2 min 0 W/m 25,1 km/h (4 Bft)
16.08.2015 21:08 14,2 C 13,3 C 98 % 15 lf 1014,1 hPa 0,0 l/m 0 min 2 min 0 W/m 14,6 km/h (3 Bft)
16.08.2015 21:10 14,2 C 12,8 C 98 % 15 lf 1014,1 hPa 0,0 l/m 0 min 2 min 0 W/m 18,8 km/h (3 Bft)
16.08.2015 21:12 14,2 C 12,8 C 98 % 15 lf 1014,1 hPa 0,0 l/m 0 min 2 min 0 W/m 14,6 km/h (3 Bft)
16.08.2015 21:14 14,2 C 12,8 C 98 % 15 lf 1014,2 hPa 0,0 l/m 0 min 2 min 0 W/m 20,9 km/h (4 Bft)
16.08.2015 21:16 14,2 C 12,8 C 98 % 15 lf 1014,2 hPa 0,0 l/m 0 min 2 min 0 W/m 16,7 km/h (3 Bft)
16.08.2015 21:18 14,2 C 12,8 C 98 % 15 lf 1014,2 hPa 0,0 l/m 0 min 0 min 0 W/m 18,8 km/h (3 Bft)
16.08.2015 21:20 14,2 C 12,8 C 98 % 15 lf 1014,2 hPa 0,0 l/m 0 min 2 min 0 W/m 16,7 km/h (3 Bft)
16.08.2015 21:22 14,2 C 12,8 C 98 % 15 lf 1014,1 hPa 0,0 l/m 0 min 2 min 0 W/m 16,7 km/h (3 Bft)
16.08.2015 21:24 14,2 C 12,8 C 98 % 15 lf 1014,2 hPa 0,0 l/m 0 min 2 min 0 W/m 18,8 km/h (3 Bft)
16.08.2015 21:26 14,2 C 12,8 C 98 % 15 lf 1014,2 hPa 0,0 l/m 0 min 0 min 0 W/m 18,8 km/h (3 Bft)
16.08.2015 21:28 14,2 C 12,8 C 98 % 15 lf 1014,2 hPa 0,0 l/m 0 min 0 min 0 W/m 20,9 km/h (4 Bft)
16.08.2015 21:30 14,2 C 12,8 C 98 % 15 lf 1014,2 hPa 0,0 l/m 0 min 0 min 0 W/m 25,1 km/h (4 Bft)
16.08.2015 21:32 14,2 C 12,8 C 98 % 15 lf 1014,2 hPa 0,0 l/m 0 min 2 min 0 W/m 27,2 km/h (4 Bft)
16.08.2015 21:34 14,2 C 12,8 C 98 % 15 lf 1014,3 hPa 0,0 l/m 0 min 2 min 0 W/m 18,8 km/h (3 Bft)
16.08.2015 21:36 14,2 C 12,8 C 98 % 15 lf 1014,3 hPa 0,0 l/m 0 min 2 min 0 W/m 16,7 km/h (3 Bft)
16.08.2015 21:38 14,2 C 12,8 C 98 % 15 lf 1014,3 hPa 0,0 l/m 0 min 2 min 0 W/m 12,6 km/h (3 Bft)
16.08.2015 21:40 14,2 C 12,8 C 98 % 15 lf 1014,4 hPa 0,2 l/m 0 min 2 min 0 W/m 18,8 km/h (3 Bft)
16.08.2015 21:42 14,2 C 12,8 C 98 % 15 lf 1014,4 hPa 0,0 l/m 0 min 2 min 0 W/m 16,7 km/h (3 Bft)
16.08.2015 21:44 14,2 C 12,8 C 98 % 15 lf 1014,4 hPa 0,0 l/m 0 min 2 min 0 W/m 16,7 km/h (3 Bft)
16.08.2015 21:46 14,2 C 12,8 C 98 % 15 lf 1014,4 hPa 0,0 l/m 0 min 2 min 0 W/m 23,0 km/h (4 Bft)
16.08.2015 21:48 14,1 C 12,8 C 98 % 15 lf 1014,4 hPa 0,0 l/m 0 min 2 min 0 W/m 16,7 km/h (3 Bft)
16.08.2015 21:50 14,2 C 12,8 C 98 % 15 lf 1014,4 hPa 0,0 l/m 0 min 2 min 0 W/m 20,9 km/h (4 Bft)
16.08.2015 21:52 14,1 C 12,8 C 98 % 15 lf 1014,5 hPa 0,0 l/m 0 min 2 min 0 W/m 16,7 km/h (3 Bft)
16.08.2015 21:54 14,1 C 12,8 C 98 % 15 lf 1014,4 hPa 0,0 l/m 0 min 2 min 0 W/m 18,8 km/h (3 Bft)
16.08.2015 21:56 14,1 C 12,8 C 98 % 15 lf 1014,4 hPa 0,0 l/m 0 min 2 min 0 W/m 18,8 km/h (3 Bft)
16.08.2015 21:58 14,1 C 12,8 C 98 % 15 lf 1014,4 hPa 0,2 l/m 0 min 2 min 0 W/m 16,7 km/h (3 Bft)
16.08.2015 22:00 14,1 C 12,8 C 98 % 15 lf 1014,5 hPa 0,0 l/m 0 min 2 min 0 W/m 14,6 km/h (3 Bft)
16.08.2015 22:02 14,1 C 12,8 C 98 % 15 lf 1014,5 hPa 0,0 l/m 0 min 2 min 0 W/m 14,6 km/h (3 Bft)
16.08.2015 22:04 14,1 C 12,8 C 98 % 15 lf 1014,5 hPa 0,0 l/m 0 min 2 min 0 W/m 12,6 km/h (3 Bft)
16.08.2015 22:06 14,1 C 12,8 C 98 % 15 lf 1014,5 hPa 0,0 l/m 0 min 2 min 0 W/m 25,1 km/h (4 Bft)
16.08.2015 22:08 14,1 C 12,8 C 98 % 15 lf 1014,5 hPa 0,0 l/m 0 min 2 min 0 W/m 16,7 km/h (3 Bft)
16.08.2015 22:10 14,1 C 12,8 C 98 % 15 lf 1014,5 hPa 0,0 l/m 0 min 2 min 0 W/m 16,7 km/h (3 Bft)
16.08.2015 22:12 14,1 C 12,8 C 98 % 15 lf 1014,5 hPa 0,2 l/m 0 min 2 min 0 W/m 18,8 km/h (3 Bft)
16.08.2015 22:14 14,1 C 12,8 C 98 % 15 lf 1014,5 hPa 0,0 l/m 0 min 2 min 0 W/m 14,6 km/h (3 Bft)
16.08.2015 22:16 14,1 C 12,8 C 98 % 15 lf 1014,5 hPa 0,0 l/m 0 min 2 min 0 W/m 14,6 km/h (3 Bft)
16.08.2015 22:18 14,1 C 12,8 C 98 % 15 lf 1014,5 hPa 0,0 l/m 0 min 2 min 0 W/m 18,8 km/h (3 Bft)
16.08.2015 22:20 14,1 C 12,8 C 98 % 15 lf 1014,6 hPa 0,0 l/m 0 min 2 min 0 W/m 14,6 km/h (3 Bft)
16.08.2015 22:22 14,1 C 12,8 C 98 % 15 lf 1014,5 hPa 0,2 l/m 0 min 2 min 0 W/m 18,8 km/h (3 Bft)
16.08.2015 22:24 14,1 C 12,8 C 98 % 15 lf 1014,5 hPa 0,0 l/m 0 min 2 min 0 W/m 14,6 km/h (3 Bft)
16.08.2015 22:26 14,1 C 12,8 C 98 % 15 lf 1014,5 hPa 0,0 l/m 0 min 2 min 0 W/m 18,8 km/h (3 Bft)
16.08.2015 22:28 14,1 C 12,8 C 98 % 15 lf 1014,5 hPa 0,0 l/m 0 min 2 min 0 W/m 16,7 km/h (3 Bft)
16.08.2015 22:30 14,0 C 12,8 C 98 % 15 lf 1014,5 hPa 0,0 l/m 0 min 2 min 0 W/m 16,7 km/h (3 Bft)
16.08.2015 22:32 14,0 C 12,8 C 98 % 15 lf 1014,4 hPa 0,0 l/m 0 min 2 min 0 W/m 25,1 km/h (4 Bft)
16.08.2015 22:34 14,0 C 12,8 C 98 % 15 lf 1014,5 hPa 0,0 l/m 0 min 2 min 0 W/m 16,7 km/h (3 Bft)
16.08.2015 22:36 14,0 C 12,8 C 98 % 15 lf 1014,5 hPa 0,2 l/m 0 min 2 min 0 W/m 20,9 km/h (4 Bft)
16.08.2015 22:38 14,0 C 12,8 C 98 % 15 lf 1014,6 hPa 0,0 l/m 0 min 2 min 0 W/m 14,6 km/h (3 Bft)
16.08.2015 22:40 14,0 C 12,8 C 98 % 15 lf 1014,5 hPa 0,0 l/m 0 min 2 min 0 W/m 20,9 km/h (4 Bft)
16.08.2015 22:42 13,9 C 12,8 C 98 % 15 lf 1014,6 hPa 0,0 l/m 0 min 2 min 0 W/m 16,7 km/h (3 Bft)
16.08.2015 22:44 14,0 C 12,8 C 98 % 15 lf 1014,5 hPa 0,0 l/m 0 min 2 min 0 W/m 18,8 km/h (3 Bft)
16.08.2015 22:46 13,9 C 12,8 C 99 % 15 lf 1014,5 hPa 0,0 l/m 0 min 2 min 0 W/m 18,8 km/h (3 Bft)
16.08.2015 22:48 13,9 C 12,8 C 98 % 15 lf 1014,5 hPa 0,0 l/m 0 min 2 min 0 W/m 18,8 km/h (3 Bft)
16.08.2015 22:50 13,9 C 12,8 C 99 % 15 lf 1014,6 hPa 0,0 l/m 0 min 2 min 0 W/m 27,2 km/h (4 Bft)
16.08.2015 22:52 13,9 C 12,8 C 99 % 15 lf 1014,6 hPa 0,0 l/m 0 min 2 min 0 W/m 18,8 km/h (3 Bft)
16.08.2015 22:54 13,9 C 12,8 C 99 % 15 lf 1014,5 hPa 0,0 l/m 0 min 2 min 0 W/m 16,7 km/h (3 Bft)
16.08.2015 22:56 13,9 C 12,8 C 99 % 15 lf 1014,5 hPa 0,2 l/m 0 min 2 min 0 W/m 18,8 km/h (3 Bft)
16.08.2015 22:58 13,9 C 12,8 C 99 % 15 lf 1014,5 hPa 0,0 l/m 0 min 2 min 0 W/m 20,9 km/h (4 Bft)
16.08.2015 23:00 13,9 C 12,8 C 99 % 15 lf 1014,5 hPa 0,0 l/m 0 min 2 min 0 W/m 16,7 km/h (3 Bft)
16.08.2015 23:02 13,8 C 12,8 C 99 % 15 lf 1014,6 hPa 0,0 l/m 0 min 2 min 0 W/m 14,6 km/h (3 Bft)
16.08.2015 23:04 13,8 C 12,8 C 99 % 15 lf 1014,6 hPa 0,2 l/m 0 min 2 min 0 W/m 14,6 km/h (3 Bft)
16.08.2015 23:06 13,8 C 12,8 C 99 % 15 lf 1014,5 hPa 0,0 l/m 0 min 2 min 0 W/m 16,7 km/h (3 Bft)
16.08.2015 23:08 13,8 C 12,8 C 98 % 15 lf 1014,5 hPa 0,0 l/m 0 min 2 min 0 W/m 23,0 km/h (4 Bft)
16.08.2015 23:10 13,8 C 12,8 C 98 % 15 lf 1014,6 hPa 0,2 l/m 0 min 2 min 0 W/m 16,7 km/h (3 Bft)
16.08.2015 23:12 13,8 C 12,8 C 98 % 15 lf 1014,5 hPa 0,0 l/m 0 min 2 min 0 W/m 27,2 km/h (4 Bft)
16.08.2015 23:14 13,8 C 12,8 C 98 % 15 lf 1014,5 hPa 0,0 l/m 0 min 2 min 0 W/m 27,2 km/h (4 Bft)
16.08.2015 23:16 13,8 C 12,8 C 98 % 15 lf 1014,5 hPa 0,0 l/m 0 min 2 min 0 W/m 23,0 km/h (4 Bft)
16.08.2015 23:18 13,8 C 12,8 C 98 % 15 lf 1014,4 hPa 0,0 l/m 0 min 2 min 0 W/m 14,6 km/h (3 Bft)
16.08.2015 23:20 13,8 C 12,8 C 98 % 15 lf 1014,3 hPa 0,0 l/m 0 min 2 min 0 W/m 16,7 km/h (3 Bft)
16.08.2015 23:22 13,8 C 12,8 C 98 % 15 lf 1014,4 hPa 0,0 l/m 0 min 2 min 0 W/m 18,8 km/h (3 Bft)
16.08.2015 23:24 13,8 C 12,8 C 98 % 15 lf 1014,4 hPa 0,0 l/m 0 min 2 min 0 W/m 18,8 km/h (3 Bft)
16.08.2015 23:26 13,8 C 12,8 C 98 % 15 lf 1014,4 hPa 0,2 l/m 0 min 2 min 0 W/m 16,7 km/h (3 Bft)
16.08.2015 23:28 13,8 C 12,8 C 98 % 15 lf 1014,4 hPa 0,0 l/m 0 min 2 min 0 W/m 18,8 km/h (3 Bft)
16.08.2015 23:30 13,8 C 12,8 C 98 % 15 lf 1014,3 hPa 0,0 l/m 0 min 2 min 0 W/m 29,3 km/h (5 Bft)
16.08.2015 23:32 13,8 C 12,8 C 98 % 15 lf 1014,3 hPa 0,0 l/m 0 min 2 min 0 W/m 27,2 km/h (4 Bft)
16.08.2015 23:34 13,8 C 12,8 C 98 % 15 lf 1014,4 hPa 0,0 l/m 0 min 2 min 0 W/m 23,0 km/h (4 Bft)
16.08.2015 23:36 13,8 C 12,8 C 98 % 15 lf 1014,3 hPa 0,0 l/m 0 min 2 min 0 W/m 25,1 km/h (4 Bft)
16.08.2015 23:38 13,7 C 12,8 C 98 % 15 lf 1014,3 hPa 0,0 l/m 0 min 2 min 0 W/m 16,7 km/h (3 Bft)
16.08.2015 23:40 13,7 C 12,8 C 98 % 15 lf 1014,4 hPa 0,0 l/m 0 min 2 min 0 W/m 18,8 km/h (3 Bft)
16.08.2015 23:42 13,7 C 12,8 C 98 % 15 lf 1014,3 hPa 0,0 l/m 0 min 2 min 0 W/m 16,7 km/h (3 Bft)
16.08.2015 23:44 13,7 C 12,8 C 98 % 15 lf 1014,4 hPa 0,0 l/m 0 min 2 min 0 W/m 16,7 km/h (3 Bft)
16.08.2015 23:46 13,7 C 12,8 C 98 % 15 lf 1014,4 hPa 0,0 l/m 0 min 2 min 0 W/m 18,8 km/h (3 Bft)
16.08.2015 23:48 13,7 C 12,8 C 98 % 15 lf 1014,3 hPa 0,0 l/m 0 min 2 min 0 W/m 14,6 km/h (3 Bft)
16.08.2015 23:50 13,7 C 12,8 C 98 % 15 lf 1014,4 hPa 0,0 l/m 0 min 2 min 0 W/m 12,6 km/h (3 Bft)
16.08.2015 23:52 13,7 C 12,8 C 98 % 15 lf 1014,4 hPa 0,2 l/m 0 min 2 min 0 W/m 20,9 km/h (4 Bft)
16.08.2015 23:54 13,7 C 12,8 C 98 % 15 lf 1014,4 hPa 0,0 l/m 0 min 2 min 0 W/m 14,6 km/h (3 Bft)
16.08.2015 23:56 13,7 C 12,8 C 98 % 15 lf 1014,3 hPa 0,0 l/m 0 min 2 min 0 W/m 16,7 km/h (3 Bft)
16.08.2015 23:58 13,7 C 12,8 C 99 % 15 lf 1014,3 hPa 0,0 l/m 0 min 2 min 0 W/m 14,6 km/h (3 Bft)
_ Min-Zeit 23:38 21:10 00:00 00:00 00:00 - - - - 06:56
Minimum _ 13,7 C 12,8 C 97 % 15 lf 1011,7 hPa - - - - 6,3 km/h (2 Bft)
_ Max-Zeit 00:00 00:00 06:44 00:00 22:20 02:10 00:00 00:00 14:56 15:22
Maximum _ 16,3 C 15,0 C 99 % 15 lf 1014,6 hPa 0,4 l/m 0 min 2 min 204 W/m 33,5 km/h
W-NW (5 Bft)
Durchschnitt _ 15,1 C 13,9 C 98 % 15 lf 1013,4 hPa #22,2 l/m #0 min. #21:30 h 81 W/m 17,5 km/h (3 Bft)
© 2015 W. Hausmann